Flight Track Log - Related Links

Times and Time Zones

All times are in EDT time to prevent confusion due to time zone crossing. See the N662US flight status page for this flight to view local times or setup timezone preferences in your user account.

Time Position Orientation Groundspeed Altitude Reporting Facility
EDT Latitude Longitude Course Direction KTS MPH feet Rate Location/Type
Sun 02:17:21 PM 40.6400 -73.7830 North 10 12  Level FlightAware ADS-B
Sun 02:20:22 PM 40.6400 -73.7840 270° West 9 10 Level FlightAware ADS-B
Sun 02:21:24 PM 40.6400 -73.7830 90° East 11 13 Level FlightAware ADS-B
Sun 02:22:18 PM 40.6390 -73.7830 180° South 12 14 Level FlightAware ADS-B
Sun 02:22:40 PM 40.6380 -73.7830 180° South 10 12 Level FlightAware ADS-B
Sun 02:25:00 PM 40.9026 -73.9795 333° Northwest  Level FlightAware Approximate
Sun 02:26:00 PM 41.0248 -74.0550 327° Northwest  Level FlightAware Approximate
Sun 02:27:00 PM 41.1384 -74.1525 339° North  Level FlightAware Approximate
Sun 02:27:54 PM 40.6370 -73.7830 323° Northwest 11 13  Level FlightAware ADS-B
Sun 02:28:00 PM 41.2560 -74.2393 323° Northwest  Level FlightAware Approximate
Sun 02:28:35 PM 40.6360 -73.7830 180° South 11 13  Level FlightAware ADS-B
Sun 02:29:36 PM 40.6350 -73.7830 180° South 13 15 Level FlightAware ADS-B
Sun 02:30:37 PM 40.6360 -73.7850 303° West 21 24 Level FlightAware ADS-B
Sun 02:30:58 PM 40.6370 -73.7860 323° Northwest 23 26 Level FlightAware ADS-B
Sun 02:31:38 PM 40.6380 -73.7880 303° West 25 29 Level FlightAware ADS-B
Sun 02:32:20 PM 40.6390 -73.7900 303° West 23 26 Level FlightAware ADS-B
Sun 02:33:02 PM 40.6400 -73.7920 303° West 25 29 Level FlightAware ADS-B
Sun 02:33:44 PM 40.6400 -73.7940 270° West 25 29 Level FlightAware ADS-B
Sun 02:34:29 PM 40.6440 -73.7950 349° North 26 30 Level FlightAware ADS-B
Sun 02:34:40 PM 40.6420 -73.7970 217° Southwest 28 32 Level FlightAware ADS-B
Sun 02:35:27 PM 40.6450 -73.7980 346° North 30 35 Level FlightAware ADS-B
Sun 02:36:04 PM 40.6450 -73.8020 270° West 19 22 Level FlightAware ADS-B
Sun 02:37:04 PM 40.6450 -73.8030 270° West Level FlightAware ADS-B
Sun 02:38:49 PM 40.6450 -73.8020 323° Northwest Level FlightAware ADS-B
Sun 02:39:00 PM 40.8764 -73.9597 323° Northwest  Level FlightAware Approximate
Sun 02:40:45 PM 40.6450 -73.8030 270° West  Level FlightAware ADS-B
Sun 02:42:20 PM 40.6450 -73.8020 90° East Level FlightAware ADS-B
Sun 02:45:00 PM 40.9434 -74.0050 339° North  Level FlightAware Approximate
Sun 02:46:00 PM 41.0625 -74.0879 327° Northwest  Level FlightAware Approximate
Sun 02:46:30 PM 40.6450 -73.8030 327° Northwest  Level FlightAware ADS-B
Sun 02:49:00 PM 40.9228 -73.9929 333° Northwest  Level FlightAware Approximate
Sun 02:50:00 PM 41.0437 -74.0715 327° Northwest  Level FlightAware Approximate
Sun 02:51:00 PM 41.1595 -74.1631 339° North  Level FlightAware Approximate
Sun 02:52:00 PM 41.2740 -74.2573 323° Northwest  Level FlightAware Approximate
Sun 02:53:00 PM 41.3881 -74.3500 North  Level FlightAware Approximate
Sun 02:54:00 PM 41.4594 -74.4940 300° West  Level FlightAware Approximate
Sun 02:55:00 PM 41.5288 -74.6489 297° West  Level FlightAware Approximate
Sun 02:56:00 PM 41.5931 -74.8028 304° West  Level FlightAware Approximate
Sun 02:56:25 PM 40.6420 -73.7990 123° Southeast 16 18  Level FlightAware ADS-B
Sun 02:56:50 PM 40.6410 -73.7970 123° Southeast 17 20 Level FlightAware ADS-B
Sun 02:57:31 PM 40.6390 -73.7930 123° Southeast 18 21 Level FlightAware ADS-B
Sun 02:57:56 PM 40.6380 -73.7910 123° Southeast 18 21 Level FlightAware ADS-B
Sun 02:58:58 PM 40.6360 -73.7870 123° Southeast 28 32 Level FlightAware ADS-B
Sun 02:59:38 PM 40.6350 -73.7840 114° Southeast 27 31 Level FlightAware ADS-B
Sun 03:00:10 PM 40.6350 -73.7830 90° East 20 23 Level FlightAware ADS-B
Sun 03:02:00 PM 40.8419 -73.9293 339° North  Level FlightAware Approximate
Sun 03:03:00 PM 40.9543 -74.0105 339° North  Level FlightAware Approximate
Sun 03:04:00 PM 41.0668 -74.0917 327° Northwest  Level FlightAware Approximate
Sun 03:05:00 PM 41.1787 -74.1747 333° Northwest  Level FlightAware Approximate
Sun 03:05:32 PM 40.6370 -73.7830 333° Northwest 19 22  Level FlightAware ADS-B
Sun 03:06:12 PM 40.6390 -73.7830 360° North 28 32 Level FlightAware ADS-B
Sun 03:06:38 PM 40.6400 -73.7830 360° North 16 18 Level FlightAware ADS-B
Sun 03:07:05 PM 40.6400 -73.7820 90° East 10 12 Level FlightAware ADS-B
Sun 03:09:00 PM 40.8448 -73.9307 339° North  Level FlightAware Approximate
Sun 03:10:00 PM 40.9571 -74.0119 339° North  Level FlightAware Approximate
Sun 03:11:00 PM 41.0693 -74.0939 327° Northwest  Level FlightAware Approximate
Sun 03:12:00 PM 41.1814 -74.1765 333° Northwest  Level FlightAware Approximate
Sun 03:13:00 PM 41.2889 -74.2695 339° North  Level FlightAware Approximate
Sun 03:14:00 PM 41.3992 -74.3500 North  Level FlightAware Approximate
Sun 03:15:00 PM 41.4616 -74.4993 300° West  Level FlightAware Approximate
Sun 03:16:00 PM 41.5279 -74.6465 297° West  Level FlightAware Approximate
Sun 03:17:00 PM 41.5883 -74.7933 304° West  Level FlightAware Approximate
Sun 03:18:00 PM 41.6584 -74.9377 298° West  Level FlightAware Approximate
Sun 03:19:00 PM 41.7189 -75.0900 294° West  Level FlightAware Approximate
Sun 03:20:00 PM 41.7815 -75.2406 300° West  Level FlightAware Approximate
Sun 03:21:00 PM 41.8452 -75.3908 300° West  Level FlightAware Approximate
Sun 03:22:00 PM 41.9087 -75.5414 300° West  Level FlightAware Approximate
Sun 03:23:00 PM 41.9713 -75.6927 299° West  Level FlightAware Approximate
Sun 03:24:00 PM 42.0333 -75.8447 299° West  Level FlightAware Approximate
Sun 03:25:00 PM 42.0950 -75.9970 299° West  Level FlightAware Approximate
Sun 03:26:00 PM 42.1555 -76.1503 294° West  Level FlightAware Approximate
Sun 03:27:00 PM 42.2072 -76.3096 294° West  Level FlightAware Approximate
Sun 03:28:00 PM 42.2587 -76.4691 294° West  Level FlightAware Approximate
Sun 03:29:00 PM 42.3099 -76.6289 293° West  Level FlightAware Approximate
Sun 03:30:00 PM 42.3610 -76.7888 293° West  Level FlightAware Approximate
Sun 03:31:00 PM 42.4119 -76.9491 293° West  Level FlightAware Approximate
Sun 03:32:00 PM 42.4619 -77.1100 293° West  Level FlightAware Approximate
Sun 03:33:00 PM 42.5110 -77.2714 292° West  Level FlightAware Approximate
Sun 03:34:00 PM 42.5600 -77.4332 292° West  Level FlightAware Approximate
Sun 03:35:00 PM 42.6087 -77.5952 292° West  Level FlightAware Approximate
Sun 03:36:00 PM 42.6572 -77.7574 292° West  Level FlightAware Approximate
Sun 03:37:00 PM 42.7060 -77.9196 292° West  Level FlightAware Approximate
Sun 03:38:00 PM 42.7545 -78.0821 292° West  Level FlightAware Approximate
Sun 03:39:00 PM 42.8027 -78.2448 292° West  Level FlightAware Approximate
Sun 03:40:00 PM 42.8507 -78.4078 292° West  Level FlightAware Approximate
Sun 03:41:00 PM 42.8985 -78.5711 292° West  Level FlightAware Approximate
Sun 03:42:00 PM 42.9747 -78.7081 317° Northwest  Level FlightAware Approximate
Sun 03:43:00 PM 43.0684 -78.8290 317° Northwest  Level FlightAware Approximate
Sun 03:44:00 PM 43.1619 -78.9504 317° Northwest  Level FlightAware Approximate
Sun 03:45:00 PM 43.2529 -79.0755 314° West  Level FlightAware Approximate
Sun 03:46:00 PM 43.3415 -79.2039 313° West  Level FlightAware Approximate
Sun 03:47:00 PM 43.4296 -79.3332 317° Northwest  Level FlightAware Approximate
Sun 03:48:00 PM 43.5239 -79.4541 317° Northwest  Level FlightAware Approximate
Sun 03:49:00 PM 43.6181 -79.5755 317° Northwest  Level FlightAware Approximate
Sun 03:50:00 PM 43.7123 -79.6969 317° Northwest  Level FlightAware Approximate
Sun 03:51:00 PM 43.8065 -79.8186 317° Northwest  Level FlightAware Approximate
Sun 03:52:00 PM 43.9006 -79.9407 317° Northwest  Level FlightAware Approximate
Sun 03:53:00 PM 43.9890 -80.0706 312° West  Level FlightAware Approximate
Sun 03:54:00 PM 44.0764 -80.2021 316° Northwest  Level FlightAware Approximate
Sun 03:55:00 PM 44.1690 -80.3269 316° Northwest  Level FlightAware Approximate
Sun 03:56:00 PM 44.2614 -80.4520 316° Northwest  Level FlightAware Approximate
Sun 03:57:00 PM 44.3499 -80.5723 316° Northwest  Level FlightAware Approximate
Sun 03:58:00 PM 44.4318 -80.6842 316° Northwest  Level FlightAware Approximate
Sun 03:59:00 PM 44.5136 -80.7964 316° Northwest  Level FlightAware Approximate
Sun 04:00:00 PM 44.5954 -80.9089 316° Northwest  Level FlightAware Approximate
Sun 04:01:00 PM 44.6770 -81.0218 316° Northwest  Level FlightAware Approximate
Sun 04:02:00 PM 44.7548 -81.1395 307° West  Level FlightAware Approximate
Sun 04:03:00 PM 44.8244 -81.2675 307° West  Level FlightAware Approximate
Sun 04:04:00 PM 44.8938 -81.3960 307° West  Level FlightAware Approximate
Sun 04:05:00 PM 44.9631 -81.5247 307° West  Level FlightAware Approximate
Sun 04:06:00 PM 45.0323 -81.6537 307° West  Level FlightAware Approximate
Sun 04:07:00 PM 45.1013 -81.7831 307° West  Level FlightAware Approximate
Sun 04:08:00 PM 45.1734 -81.9190 307° West  Level FlightAware Approximate
Sun 04:09:00 PM 45.2454 -82.0552 307° West  Level FlightAware Approximate
Sun 04:10:00 PM 45.3172 -82.1918 307° West  Level FlightAware Approximate
Sun 04:11:00 PM 45.3889 -82.3288 307° West  Level FlightAware Approximate
Sun 04:12:00 PM 45.4629 -82.4633 308° West  Level FlightAware Approximate
Sun 04:13:00 PM 45.5373 -82.5977 308° West  Level FlightAware Approximate
Sun 04:13:38 PM 40.6400 -73.7830 307° West 2 2  Level FlightAware ADS-B
Sun 04:14:00 PM 45.6114 -82.7325 308° West  Level FlightAware Approximate
Sun 04:15:00 PM 45.6849 -82.8682 307° West  Level FlightAware Approximate
Sun 04:16:00 PM 45.7565 -83.0061 307° West  Level FlightAware Approximate
Sun 04:17:00 PM 45.8280 -83.1443 307° West  Level FlightAware Approximate
Sun 04:17:50 PM 40.6390 -73.7830 180° South 2 2  Level FlightAware ADS-B
Sun 04:18:00 PM 45.8993 -83.2829 307° West  Level FlightAware Approximate
Sun 04:19:42 PM 40.6380 -73.7830 180° South 2 2  Level FlightAware ADS-B
Sun 04:22:00 PM 40.8687 -73.9520 323° Northwest  Level FlightAware Approximate
Sun 04:23:00 PM 40.9761 -74.0214 339° North  Level FlightAware Approximate
Sun 04:24:00 PM 41.0747 -74.0986 327° Northwest  Level FlightAware Approximate
Sun 04:24:03 PM 40.6370 -73.7830 327° Northwest 16 18  Level FlightAware ADS-B
Sun 04:24:48 PM 40.6360 -73.7830 180° South 13 Level FlightAware ADS-B
Sun 04:27:00 PM 40.8572 -73.9405 323° Northwest  Level FlightAware Approximate
Sun 04:28:00 PM 40.9579 -74.0123 339° North  Level FlightAware Approximate
Sun 04:29:00 PM 41.0584 -74.0844 327° Northwest  Level FlightAware Approximate
Sun 04:29:00 PM 40.6350 -73.7830 327° Northwest 15 17  Level FlightAware ADS-B
Sun 04:29:44 PM 40.6360 -73.7850 303° West 28 32 19 Level FlightAware ADS-B
Sun 04:30:27 PM 40.6380 -73.7880 311° West 31 36 21 Level FlightAware ADS-B
Sun 04:31:08 PM 40.6390 -73.7910 294° West 32 37 23 Level FlightAware ADS-B
Sun 04:31:36 PM 40.6400 -73.7930 303° West 28 32 24 Level FlightAware ADS-B
Sun 04:32:44 PM 40.6420 -73.7970 303° West 31 36 26 Level FlightAware ADS-B
Sun 04:33:09 PM 40.6430 -73.7990 303° West 33 38 30 Level FlightAware ADS-B
Sun 04:33:40 PM 40.6440 -73.8010 303° West 32 37 33 Level FlightAware ADS-B
Sun 04:36:00 PM 40.8786 -73.9619 323° Northwest  Level FlightAware Approximate
Sun 04:37:00 PM 40.9822 -74.0244 339° North  Level FlightAware Approximate
Sun 04:38:00 PM 41.0793 -74.1027 327° Northwest  Level FlightAware Approximate
Sun 04:38:58 PM 40.6390 -73.7960 333° Northwest 155 178  Level FlightAware ADS-B
Sun 04:39:00 PM 41.1790 -74.1749 333° Northwest  Level FlightAware Approximate
Sun 04:39:18 PM 40.6300 -73.7770 122° Southeast 181 208 200  Level FlightAware ADS-B
Sun 04:39:34 PM 40.6220 -73.7630 127° Southeast 177 204 600 1,364 Climbing FlightAware ADS-B
Sun 04:40:02 PM 40.6040 -73.7430 140° Southeast 191 220 1,200 1,000 Climbing FlightAware ADS-B
Sun 04:40:28 PM 40.5850 -73.7200 137° Southeast 223 257 1,500 837 Climbing FlightAware ADS-B
Sun 04:40:45 PM 40.5750 -73.7010 125° Southeast 239 275 1,800 857 Climbing FlightAware ADS-B
Sun 04:40:56 PM 40.5710 -73.6840 107° East 252 290 1,900 857 Climbing FlightAware ADS-B
Sun 04:41:13 PM 40.5680 -73.6600 99° East 264 304 2,200 1,077 Climbing FlightAware ADS-B
Sun 04:41:35 PM 40.5660 -73.6220 94° East 283 326 2,600 1,158 Climbing FlightAware ADS-B
Sun 04:42:10 PM 40.5850 -73.5660 66° East 301 346 3,300 1,810 Climbing FlightAware ADS-B
Sun 04:42:38 PM 40.6120 -73.5260 48° Northeast 305 351 4,500 2,192 Climbing FlightAware ADS-B
Sun 04:43:02 PM 40.6290 -73.5000 49° Northeast 309 356 5,200 2,250 Climbing FlightAware ADS-B
Sun 04:43:34 PM 40.6650 -73.4470 48° Northeast 313 360 6,600 2,455 Climbing FlightAware ADS-B
Sun 04:43:46 PM 40.6810 -73.4360 28° Northeast 308 354 7,000 2,087 Climbing FlightAware ADS-B
Sun 04:43:57 PM 40.6960 -73.4330 North 303 349 7,400 1,902 Climbing FlightAware ADS-B
Sun 04:44:27 PM 40.7330 -73.4500 341° North 298 343 8,300 2,000 Climbing FlightAware ADS-B
Sun 04:44:54 PM 40.7670 -73.4790 327° Northwest 304 350 9,300 2,133 Climbing FlightAware ADS-B
Sun 04:45:12 PM 40.7860 -73.5010 319° Northwest 307 353 9,900 1,424 Climbing FlightAware ADS-B
Sun 04:45:53 PM 40.8280 -73.5570 315° West 331 381 10,700 1,171 Climbing FlightAware ADS-B
Sun 04:46:34 PM 40.8740 -73.6200 314° West 362 417 11,500 1,129 Climbing FlightAware ADS-B
Sun 04:47:18 PM 40.9290 -73.6950 314° West 393 452 12,300 1,200 Climbing FlightAware ADS-B
Sun 04:47:59 PM 40.9730 -73.7570 313° West 406 467 13,200 1,538 Climbing FlightAware ADS-B
Sun 04:48:36 PM 41.0180 -73.8180 314° West 411 473 14,300 2,190 Climbing FlightAware ADS-B
Sun 04:49:02 PM 41.0646 -73.8824 314° West 415 478 15,500 2,239 Climbing FlightAware ADS-B
Sun 04:49:43 PM 41.1188 -73.9567 314° West 410 472 16,800 743 Climbing FlightAware ADS-B
Sun 04:50:47 PM 41.2020 -74.0710 314° West 408 470 16,800 59 Level FlightAware ADS-B
Sun 04:51:25 PM 41.2520 -74.1400 314° West 409 471 16,900 73 Climbing FlightAware ADS-B
Sun 04:52:09 PM 41.3080 -74.2200 313° West 410 472 16,900  Level FlightAware ADS-B
Sun 04:52:49 PM 41.3620 -74.2930 315° West 408 470 16,900 759 Level FlightAware ADS-B
Sun 04:53:28 PM 41.4090 -74.3650 311° West 408 470 17,900 2,488 Climbing FlightAware ADS-B
Sun 04:54:11 PM 41.4500 -74.4550 301° West 377 434 20,300 2,414 Climbing FlightAware ADS-B
Sun 04:54:55 PM 41.4850 -74.5370 300° West 371 427 21,400 907 Climbing FlightAware ADS-B
Sun 04:55:37 PM 41.5170 -74.6150 299° West 372 428 21,600 1,310 Climbing FlightAware ADS-B
Sun 04:56:22 PM 41.5610 -74.7130 301° West 373 429 23,300 1,902 Climbing FlightAware ADS-B
Sun 04:56:59 PM 41.5980 -74.7990 300° West 387 445 24,200 1,271 Climbing FlightAware ADS-B
Sun 04:57:47 PM 41.6410 -74.8990 300° West 391 450 25,100 1,047 Climbing FlightAware ADS-B
Sun 04:58:25 PM 41.6740 -74.9780 299° West 394 453 25,700 532 Climbing FlightAware ADS-B
Sun 04:59:06 PM 41.7040 -75.0500 299° West 397 457 25,800 259 Climbing FlightAware ADS-B
Sun 05:00:21 PM 41.7690 -75.2060 299° West 412 474 26,200 216 Climbing FlightAware ADS-B
Sun 05:00:57 PM 41.7960 -75.2750 298° West 412 474 26,200  Level FlightAware ADS-B
Sun 05:01:44 PM 41.8320 -75.3650 298° West 412 474 26,200  Level FlightAware ADS-B
Sun 05:02:22 PM 41.8610 -75.4380 298° West 412 474 26,200  Level FlightAware ADS-B
Sun 05:03:08 PM 41.8960 -75.5260 298° West 412 474 26,200 1,888 Level FlightAware ADS-B
Sun 05:03:51 PM 42.0030 -75.7600 302° West 461 531 29,000 2,541 Climbing FlightAware ADS-B
Sun 05:04:33 PM 42.0460 -75.8650 299° West 458 527 29,800 846 Climbing FlightAware ADS-B
Sun 05:05:09 PM 42.0820 -75.9520 299° West 460 529 30,100 214 Climbing FlightAware ADS-B
Sun 05:05:57 PM 42.1330 -76.0750 299° West 458 527 30,100  Level FlightAware ADS-B
Sun 05:06:33 PM 42.1690 -76.1650 298° West 457 526 30,100  Level FlightAware ADS-B
Sun 05:07:21 PM 42.2070 -76.2880 293° West 455 524 30,100  Level FlightAware ADS-B
Sun 05:08:01 PM 42.2400 -76.3960 292° West 457 526 30,100  Level FlightAware ADS-B
Sun 05:08:43 PM 42.2750 -76.5060 293° West 457 526 30,100  Level FlightAware ADS-B
Sun 05:09:27 PM 42.3120 -76.6220 293° West 458 527 30,100  Level FlightAware ADS-B
Sun 05:10:08 PM 42.3440 -76.7220 293° West 459 528 30,100  Level FlightAware ADS-B
Sun 05:10:45 PM 42.3770 -76.8250 293° West 460 529 30,100  Level FlightAware ADS-B
Sun 05:11:37 PM 42.4210 -76.9650 293° West 461 531 30,100  Level FlightAware ADS-B
Sun 05:12:15 PM 42.4530 -77.0660 293° West 461 531 30,100  Level FlightAware ADS-B
Sun 05:12:59 PM 42.4890 -77.1840 293° West 462 532 30,100  Level FlightAware ADS-B
Sun 05:13:43 PM 42.5250 -77.3010 293° West 462 532 30,100  Level FlightAware ADS-B
Sun 05:14:23 PM 42.5570 -77.4050 293° West 463 533 30,100  Level FlightAware ADS-B
Sun 05:15:06 PM 42.5920 -77.5180 293° West 464 534 30,100  Level FlightAware ADS-B
Sun 05:15:47 PM 42.6260 -77.6310 292° West 465 535 30,100  Level FlightAware ADS-B
Sun 05:16:27 PM 42.6590 -77.7390 293° West 466 536 30,100  Level FlightAware ADS-B
Sun 05:17:13 PM 42.6970 -77.8640 293° West 466 536 30,100  Level FlightAware ADS-B
Sun 05:17:55 PM 42.7310 -77.9780 292° West 466 536 30,100  Level FlightAware ADS-B
Sun 05:18:37 PM 42.7660 -78.0950 292° West 466 536 30,100  Level FlightAware ADS-B
Sun 05:19:11 PM 42.7950 -78.1830 294° West 469 540 30,100  Level FlightAware ADS-B
Sun 05:19:57 PM 42.8600 -78.2850 311° West 475 547 30,100  Level FlightAware ADS-B
Sun 05:20:37 PM 42.9150 -78.3750 310° West 475 547 30,100  Level FlightAware ADS-B
Sun 05:21:21 PM 42.9740 -78.4790 308° West 476 548 30,100  Level FlightAware ADS-B
Sun 05:22:06 PM 43.0350 -78.5900 307° West 479 551 30,100  Level FlightAware ADS-B
Sun 05:22:46 PM 43.0920 -78.6830 310° West 479 551 30,100  Level FlightAware ADS-B
Sun 05:23:26 PM 43.1490 -78.7780 309° West 479 551 30,100  Level FlightAware ADS-B
Sun 05:24:11 PM 43.2120 -78.8810 310° West 479 551 30,100  Level FlightAware ADS-B
Sun 05:24:51 PM 43.2700 -78.9770 310° West 480 552 30,100  Level FlightAware ADS-B
Sun 05:25:36 PM 43.3330 -79.0830 309° West 480 552 30,100  Level FlightAware ADS-B
Sun 05:26:11 PM 43.3830 -79.1660 310° West 480 552 30,100  Level FlightAware ADS-B
Sun 05:26:56 PM 43.4440 -79.2680 309° West 481 554 30,100  Level FlightAware ADS-B
Sun 05:27:41 PM 43.5090 -79.3790 309° West 481 554 30,100  Level FlightAware ADS-B
Sun 05:28:21 PM 43.5660 -79.4730 310° West 480 552 30,100  Level FlightAware ADS-B
Sun 05:29:16 PM 43.6440 -79.6040 309° West 482 555 30,100  Level FlightAware ADS-B
Sun 05:30:01 PM 43.7200 -79.6960 319° Northwest 487 560 30,100  Level FlightAware ADS-B
Sun 05:30:41 PM 43.7900 -79.7690 323° Northwest 487 560 30,100  Level FlightAware ADS-B
Sun 05:31:26 PM 43.8700 -79.8540 323° Northwest 488 562 30,100  Level FlightAware ADS-B
Sun 05:32:06 PM 43.9390 -79.9260 323° Northwest 487 560 30,100  Level FlightAware ADS-B
Sun 05:32:51 PM 44.0200 -80.0140 322° Northwest 485 558 30,100  Level FlightAware ADS-B
Sun 05:33:31 PM 44.0920 -80.0900 323° Northwest 484 557 30,100  Level FlightAware ADS-B
Sun 05:34:11 PM 44.1620 -80.1730 320° Northwest 480 552 30,100  Level FlightAware ADS-B
Sun 05:35:23 PM 44.2650 -80.3360 311° West 478 550 30,100  Level FlightAware ADS-B
Sun 05:36:08 PM 44.3300 -80.4410 311° West 478 550 30,100  Level FlightAware ADS-B
Sun 05:36:48 PM 44.3900 -80.5360 311° West 477 549 30,100  Level FlightAware ADS-B
Sun 05:37:28 PM 44.4460 -80.6240 312° West 476 548 30,100  Level FlightAware ADS-B
Sun 05:38:08 PM 44.5040 -80.7160 311° West 475 547 30,100  Level FlightAware ADS-B
Sun 05:38:53 PM 44.5680 -80.8180 311° West 475 547 30,100  Level FlightAware ADS-B
Sun 05:39:33 PM 44.6250 -80.9110 311° West 474 545 30,100  Level FlightAware ADS-B
Sun 05:40:13 PM 44.6870 -81.0110 311° West 475 547 30,100  Level FlightAware ADS-B
Sun 05:40:58 PM 44.7450 -81.1050 311° West 476 548 30,100  Level FlightAware ADS-B
Sun 05:41:39 PM 44.8000 -81.2020 309° West 474 545 30,100  Level FlightAware ADS-B
Sun 05:42:21 PM 44.8550 -81.3050 307° West 477 549 30,100  Level FlightAware ADS-B
Sun 05:43:05 PM 44.9150 -81.4140 308° West 478 550 30,100  Level FlightAware ADS-B
Sun 05:43:49 PM 44.9840 -81.5430 307° West 478 550 30,100  Level FlightAware ADS-B
Sun 05:44:29 PM 45.0380 -81.6420 308° West 478 550 30,100  Level FlightAware ADS-B
Sun 05:45:14 PM 45.0980 -81.7540 307° West 477 549 30,100  Level FlightAware ADS-B
Sun 05:45:52 PM 45.1480 -81.8450 308° West 476 548 30,100  Level FlightAware ADS-B
Sun 05:46:37 PM 45.2080 -81.9580 307° West 477 549 30,100  Level FlightAware ADS-B
Sun 05:47:15 PM 45.2580 -82.0530 307° West 477 549 30,100  Level FlightAware ADS-B
Sun 05:47:55 PM 45.3120 -82.1550 307° West 476 548 30,100  Level FlightAware ADS-B
Sun 05:48:40 PM 45.3710 -82.2650 307° West 475 547 30,100  Level FlightAware ADS-B
Sun 05:49:24 PM 45.4190 -82.3580 306° West 475 547 30,100  Level FlightAware ADS-B
Sun 05:50:00 PM 45.4580 -82.4360 306° West 475 547 30,100  Level FlightAware ADS-B
Sun 05:50:48 PM 45.5110 -82.5390 306° West 475 547 30,100  Level FlightAware ADS-B
Sun 05:51:24 PM 45.5500 -82.6170 306° West 475 547 30,100  Level FlightAware ADS-B
Sun 05:52:12 PM 45.6030 -82.7210 306° West 475 547 30,100  Level FlightAware ADS-B
Sun 05:52:49 PM 45.6440 -82.8010 306° West 475 547 30,100  Level FlightAware ADS-B
Sun 05:53:37 PM 45.6960 -82.9040 306° West 475 547 30,100  Level FlightAware ADS-B
Sun 05:54:13 PM 45.7360 -82.9820 306° West 475 547 30,100  Level FlightAware ADS-B
Sun 05:55:02 PM 45.7900 -83.0890 306° West 475 547 30,100  Level FlightAware ADS-B
Sun 05:55:38 PM 45.8290 -83.1670 306° West 475 547 30,100  Level FlightAware ADS-B
Sun 05:56:40 PM 45.8970 -83.3010 306° West 475 547 30,100  Level FlightAware ADS-B
Sun 05:57:16 PM 45.9370 -83.3790 306° West 475 547 30,100  Level FlightAware ADS-B
Sun 05:58:04 PM 45.9890 -83.4840 306° West 475 547 30,100  Level FlightAware ADS-B
Sun 05:58:41 PM 46.0300 -83.5640 306° West 475 547 30,100  Level FlightAware ADS-B
Sun 05:59:33 PM 46.2000 -83.9167 306° West 480 552 30,100  Level Toronto Center
Sun 06:00:33 PM 46.2833 -84.0667 309° West 480 552 30,100  Level Toronto Center
Sun 06:01:33 PM 46.3667 -84.2167 309° West 480 552 30,100  Level Toronto Center
Sun 06:02:33 PM 46.4333 -84.3667 303° West 480 552 30,100  Level Toronto Center
Sun 06:03:33 PM 46.5000 -84.5500 298° West 470 541 30,100  Level Toronto Center
Sun 06:04:33 PM 46.5500 -84.7167 294° West 470 541 30,100  Level Toronto Center
Sun 06:05:33 PM 46.6167 -84.8833 300° West 480 552 30,100  Level Toronto Center
Sun 06:06:33 PM 46.6833 -85.0500 300° West 480 552 30,100  Level Toronto Center
Sun 06:07:33 PM 46.7500 -85.2333 298° West 480 552 30,100  Level Toronto Center
Sun 06:08:33 PM 46.8167 -85.4000 300° West 480 552 30,100  Level Toronto Center
Sun 06:09:33 PM 46.8833 -85.5667 300° West 480 552 30,100  Level Toronto Center
Sun 06:10:28 PM 46.9333 -85.6667 306° West 480 552 30,100  Level Winnipeg Center
Sun 06:11:28 PM 46.9833 -85.8500 292° West 480 552 30,100  Level Winnipeg Center
Sun 06:12:28 PM 47.0500 -86.0167 300° West 480 552 30,100  Level Winnipeg Center
Sun 06:13:28 PM 47.1167 -86.2000 298° West 480 552 30,100  Level Winnipeg Center
Sun 06:14:28 PM 47.1667 -86.3500 296° West 480 552 30,100  Level Winnipeg Center
Sun 06:15:28 PM 47.2500 -86.5333 304° West 480 552 30,100  Level Winnipeg Center
Sun 06:16:28 PM 47.3000 -86.7000 294° West 480 552 30,100  Level Winnipeg Center
Sun 06:17:28 PM 47.3833 -86.8833 304° West 480 552 30,100  Level Winnipeg Center
Sun 06:18:28 PM 47.4333 -87.0500 294° West 480 552 30,100  Level Winnipeg Center
Sun 06:19:28 PM 47.4833 -87.2333 292° West 480 552 30,100  Level Winnipeg Center
Sun 06:20:28 PM 47.5500 -87.4000 301° West 480 552 30,100  Level Winnipeg Center
Sun 06:21:28 PM 47.6167 -87.5833 298° West 480 552 30,100  Level Winnipeg Center
Sun 06:22:28 PM 47.6833 -87.7667 298° West 480 552 30,100  Level Winnipeg Center
Sun 06:23:28 PM 47.7333 -87.9333 294° West 480 552 30,100  Level Winnipeg Center
Sun 06:24:28 PM 47.8000 -88.1000 301° West 480 552 30,100  Level Winnipeg Center
Sun 06:25:28 PM 47.8667 -88.2833 299° West 480 552 30,100  Level Winnipeg Center
Sun 06:26:28 PM 47.9167 -88.4500 294° West 480 552 30,100  Level Winnipeg Center
Sun 06:31:40 PM 48.2650 -89.4420 294° West 496 571 30,100  Level FlightAware ADS-B
Sun 06:32:28 PM 48.3450 -89.5530 317° Northwest 503 579 30,100  Level FlightAware ADS-B
Sun 06:33:07 PM 48.4040 -89.6280 320° Northwest 503 579 30,100  Level FlightAware ADS-B
Sun 06:33:56 PM 48.4780 -89.7220 320° Northwest 503 579 30,100  Level FlightAware ADS-B
Sun 06:34:32 PM 48.5330 -89.7910 320° Northwest 503 579 30,100  Level FlightAware ADS-B
Sun 06:35:20 PM 48.6050 -89.8830 320° Northwest 503 579 30,100  Level FlightAware ADS-B
Sun 06:35:55 PM 48.6580 -89.9500 320° Northwest 503 579 30,100  Level FlightAware ADS-B
Sun 06:36:44 PM 48.7330 -90.0450 320° Northwest 503 579 30,100  Level FlightAware ADS-B
Sun 06:37:19 PM 48.7860 -90.1120 320° Northwest 503 579 30,100  Level FlightAware ADS-B
Sun 06:38:08 PM 48.8600 -90.2070 320° Northwest 503 579 30,100  Level FlightAware ADS-B
Sun 06:38:44 PM 48.9140 -90.2770 320° Northwest 503 579 30,100  Level FlightAware ADS-B
Sun 06:39:33 PM 48.9890 -90.3710 321° Northwest 503 579 30,100  Level FlightAware ADS-B
Sun 06:40:10 PM 49.0450 -90.4430 320° Northwest 503 579 30,100  Level FlightAware ADS-B
Sun 06:40:58 PM 49.1170 -90.5360 320° Northwest 503 579 30,100  Level FlightAware ADS-B
Sun 06:41:34 PM 49.1720 -90.6060 320° Northwest 503 579 30,100  Level FlightAware ADS-B
Sun 06:42:20 PM 49.2420 -90.6960 320° Northwest 503 579 30,100  Level FlightAware ADS-B
Sun 06:43:28 PM 49.4833 -91.0333 320° Northwest 500 575 30,100  Level Winnipeg Center
Sun 06:44:28 PM 49.6000 -91.1833 320° Northwest 500 575 30,100  Level Winnipeg Center
Sun 06:45:28 PM 49.7000 -91.3167 319° Northwest 510 587 30,100  Level Winnipeg Center
Sun 06:46:28 PM 49.8167 -91.4667 320° Northwest 510 587 30,100  Level Winnipeg Center
Sun 06:47:28 PM 49.9167 -91.6167 316° Northwest 510 587 30,100  Level Winnipeg Center
Sun 06:48:28 PM 50.0167 -91.7500 319° Northwest 510 587 30,100  Level Winnipeg Center
Sun 06:49:28 PM 50.1167 -91.9000 316° Northwest 510 587 30,100  Level Winnipeg Center
Sun 06:50:28 PM 50.2000 -92.0667 308° West 510 587 30,100  Level Winnipeg Center
Sun 06:51:28 PM 50.3000 -92.2500 311° West 510 587 30,100  Level Winnipeg Center
Sun 06:52:28 PM 50.3833 -92.4167 308° West 510 587 30,100  Level Winnipeg Center
Sun 06:53:28 PM 50.4833 -92.6000 311° West 510 587 30,100  Level Winnipeg Center
Sun 06:54:28 PM 50.5667 -92.7667 308° West 510 587 30,100  Level Winnipeg Center
Sun 06:55:28 PM 50.6667 -92.9500 311° West 520 598 30,100  Level Winnipeg Center
Sun 06:56:28 PM 50.7500 -93.1333 306° West 520 598 30,100  Level Winnipeg Center
Sun 06:57:28 PM 50.8333 -93.3000 308° West 520 598 30,100  Level Winnipeg Center
Sun 06:58:28 PM 50.9333 -93.4833 311° West 520 598 30,100  Level Winnipeg Center
Sun 06:59:28 PM 51.0167 -93.7000 302° West 520 598 30,100  Level Winnipeg Center
Sun 07:00:28 PM 51.1167 -93.8500 317° Northwest 530 610 30,100  Level Winnipeg Center
Sun 07:01:28 PM 51.2500 -94.0000 325° Northwest 530 610 30,100  Level Winnipeg Center
Sun 07:02:28 PM 51.3667 -94.1167 328° Northwest 530 610 30,100  Level Winnipeg Center
Sun 07:03:28 PM 51.4667 -94.2833 314° West 530 610 30,100  Level Winnipeg Center
Sun 07:04:28 PM 51.5833 -94.4333 321° Northwest 530 610 30,100  Level Winnipeg Center
Sun 07:05:28 PM 51.7000 -94.5833 321° Northwest 530 610 30,100  Level Winnipeg Center
Sun 07:06:28 PM 51.8167 -94.7500 319° Northwest 530 610 30,100  Level Winnipeg Center
Sun 07:07:28 PM 51.9333 -94.9000 322° Northwest 530 610 30,100  Level Winnipeg Center
Sun 07:08:13 PM 52.0000 -94.9833 322° Northwest 530 610 30,100  Level Edmonton Center
Sun 07:09:13 PM 52.1167 -95.1500 319° Northwest 530 610 30,100  Level Edmonton Center
Sun 07:09:28 PM 52.1500 -95.2167 309° West 530 610 30,100  Level Winnipeg Center
Sun 07:10:28 PM 52.2833 -95.3833 323° Northwest 530 610 30,100  Level Winnipeg Center
Sun 07:11:28 PM 52.3833 -95.5167 321° Northwest 550 633 30,100 100 Level Winnipeg Center
Sun 07:12:28 PM 52.5167 -95.7000 320° Northwest 530 610 30,300 650 Climbing Winnipeg Center
Sun 07:13:28 PM 52.6167 -95.8667 315° West 550 633 31,400 971 Climbing Winnipeg Center
Sun 07:14:13 PM 52.6833 -95.9333 329° Northwest 530 610 32,000 400 Climbing Edmonton Center
Sun 07:15:13 PM 52.8000 -96.1167 317° Northwest 540 621 32,100 80 Climbing Edmonton Center
Sun 07:15:28 PM 52.8333 -96.1833 310° West 540 621 32,100  Level Winnipeg Center
Sun 07:16:28 PM 52.9500 -96.3167 325° Northwest 540 621 32,100  Level Winnipeg Center
Sun 07:17:28 PM 53.0667 -96.4833 319° Northwest 540 621 32,100  Level Winnipeg Center
Sun 07:18:28 PM 53.2000 -96.6833 318° Northwest 540 621 32,100  Level Winnipeg Center
Sun 07:19:28 PM 53.3000 -96.8167 321° Northwest 540 621 32,100  Level Winnipeg Center
Sun 07:20:28 PM 53.4333 -97.0000 321° Northwest 550 633 32,100  Level Winnipeg Center
Sun 07:21:13 PM 53.4833 -97.1000 310° West 540 621 32,100  Level Edmonton Center
Sun 07:22:13 PM 53.6167 -97.2833 321° Northwest 540 621 32,100  Level Edmonton Center
Sun 07:22:28 PM 53.6500 -97.3667 304° West 550 633 32,100  Level Winnipeg Center
Sun 07:23:28 PM 53.7667 -97.5333 320° Northwest 550 633 32,100  Level Winnipeg Center
Sun 07:24:28 PM 53.8833 -97.7000 320° Northwest 560 644 32,100  Level Winnipeg Center
Sun 07:25:28 PM 54.0000 -97.8667 320° Northwest 560 644 32,100  Level Winnipeg Center
Sun 07:26:28 PM 54.0667 -98.0833 298° West 550 633 32,100  Level Winnipeg Center
Sun 07:27:13 PM 54.1500 -98.2167 317° Northwest 550 633 32,100  Level Edmonton Center
Sun 07:28:13 PM 54.2333 -98.4167 306° West 540 621 32,100  Level Edmonton Center
Sun 07:29:13 PM 54.3333 -98.6333 308° West 550 633 32,100  Level Edmonton Center
Sun 07:29:28 PM 54.3667 -98.7167 304° West 550 633 32,100  Level Winnipeg Center
Sun 07:30:28 PM 54.4667 -98.9167 311° West 550 633 32,100  Level Winnipeg Center
Sun 07:31:28 PM 54.5667 -99.1333 309° West 560 644 32,100  Level Winnipeg Center
Sun 07:32:13 PM 54.6167 -99.2500 307° West 550 633 32,100  Level Edmonton Center
Sun 07:32:28 PM 54.6500 -99.3333 305° West 560 644 32,100  Level Winnipeg Center
Sun 07:33:28 PM 54.7500 -99.5667 307° West 560 644 32,100  Level Winnipeg Center
Sun 07:34:28 PM 54.8333 -99.7833 304° West 560 644 32,100  Level Winnipeg Center
Sun 07:35:28 PM 54.9333 -100.0000 309° West 560 644 32,100  Level Winnipeg Center
Sun 07:36:13 PM 55.0000 -100.1500 308° West 560 644 32,100  Level Edmonton Center
Sun 07:37:13 PM 55.0833 -100.3500 306° West 560 644 32,100  Level Edmonton Center
Sun 07:37:28 PM 55.1167 -100.4500 300° West 560 644 32,100  Level Winnipeg Center
Sun 07:38:13 PM 55.1833 -100.5667 315° West 550 633 32,100  Level Edmonton Center
Sun 07:38:28 PM 55.2167 -100.6667 300° West 560 644 32,100  Level Winnipeg Center
Sun 07:39:28 PM 55.3000 -100.8667 306° West 560 644 32,100  Level Winnipeg Center
Sun 07:40:28 PM 55.4000 -101.0833 309° West 550 633 32,100  Level Winnipeg Center
Sun 07:41:13 PM 55.4333 -101.2333 291° West 540 621 32,100  Level Edmonton Center
Sun 07:42:13 PM 55.5500 -101.4500 314° West 540 621 32,100  Level Edmonton Center
Sun 07:43:13 PM 55.6167 -101.6667 299° West 540 621 32,100  Level Edmonton Center
Sun 07:44:13 PM 55.7167 -101.9000 307° West 550 633 32,100  Level Edmonton Center
Sun 07:45:13 PM 55.8000 -102.1333 303° West 550 633 32,100  Level Edmonton Center
Sun 07:45:28 PM 55.8500 -102.2167 317° Northwest 560 644 32,100  Level Winnipeg Center
Sun 07:46:28 PM 55.9333 -102.4333 305° West 560 644 32,100  Level Winnipeg Center
Sun 07:47:28 PM 56.0167 -102.6500 305° West 560 644 32,100  Level Winnipeg Center
Sun 07:48:13 PM 56.0667 -102.8000 301° West 550 633 32,100  Level Edmonton Center
Sun 07:48:28 PM 56.1000 -102.8833 306° West 560 644 32,100  Level Winnipeg Center
Sun 07:49:28 PM 56.1833 -103.1333 301° West 560 644 32,100  Level Winnipeg Center
Sun 07:50:28 PM 56.3000 -103.3667 312° West 570 656 32,100  Level Winnipeg Center
Sun 07:51:13 PM 56.3333 -103.5000 294° West 560 644 32,100  Level Edmonton Center
Sun 07:52:13 PM 56.4167 -103.7333 303° West 560 644 32,100  Level Edmonton Center
Sun 07:53:13 PM 56.5167 -103.9833 306° West 550 633 32,100  Level Edmonton Center
Sun 07:53:28 PM 56.5500 -104.0667 306° West 560 644 32,100  Level Winnipeg Center
Sun 07:54:28 PM 56.6333 -104.3000 303° West 560 644 32,100  Level Winnipeg Center
Sun 07:55:28 PM 56.7167 -104.5333 303° West 560 644 32,100  Level Winnipeg Center
Sun 07:56:28 PM 56.8000 -104.7667 303° West 550 633 32,100  Level Winnipeg Center
Sun 07:57:28 PM 56.8833 -105.0000 303° West 550 633 32,100  Level Winnipeg Center
Sun 07:58:28 PM 56.9833 -105.2333 308° West 550 633 32,100  Level Winnipeg Center
Sun 07:59:28 PM 57.0500 -105.4667 298° West 550 633 32,100  Level Winnipeg Center
Sun 08:00:28 PM 57.1500 -105.7333 305° West 560 644 32,100  Level Winnipeg Center
Sun 08:01:28 PM 57.2333 -105.9667 303° West 560 644 32,100  Level Winnipeg Center
Sun 08:02:13 PM 57.2667 -106.0833 298° West 550 633 32,100  Level Edmonton Center
Sun 08:03:13 PM 57.3500 -106.3500 300° West 550 633 32,100  Level Edmonton Center
Sun 08:04:13 PM 57.4333 -106.6000 302° West 550 633 32,100  Level Edmonton Center
Sun 08:05:13 PM 57.5167 -106.8167 306° West 540 621 32,100  Level Edmonton Center
Sun 08:06:13 PM 57.6000 -107.0833 300° West 540 621 32,100  Level Edmonton Center
Sun 08:07:13 PM 57.6833 -107.3333 302° West 540 621 32,100  Level Edmonton Center
Sun 08:08:13 PM 57.7667 -107.5667 304° West 540 621 32,100  Level Edmonton Center
Sun 08:09:13 PM 57.8167 -107.8333 289° West 530 610 32,100  Level Edmonton Center
Sun 08:10:13 PM 57.9000 -108.0500 306° West 530 610 32,100  Level Edmonton Center
Sun 08:11:13 PM 57.9833 -108.2833 304° West 530 610 32,100  Level Edmonton Center
Sun 08:12:13 PM 58.0667 -108.5500 301° West 530 610 32,100  Level Edmonton Center
Sun 08:13:13 PM 58.1333 -108.7833 298° West 530 610 32,100  Level Edmonton Center
Sun 08:14:13 PM 58.2000 -109.0500 295° West 530 610 32,100  Level Edmonton Center
Sun 08:15:13 PM 58.2667 -109.2833 299° West 530 610 32,100  Level Edmonton Center
Sun 08:16:13 PM 58.3500 -109.5167 304° West 520 598 32,100  Level Edmonton Center
Sun 08:17:13 PM 58.4333 -109.7833 301° West 530 610 32,100  Level Edmonton Center
Sun 08:18:13 PM 58.4833 -110.0333 291° West 520 598 32,100  Level Edmonton Center
Sun 08:19:13 PM 58.5667 -110.2667 304° West 530 610 32,100  Level Edmonton Center
Sun 08:20:13 PM 58.6333 -110.5333 296° West 540 621 32,100  Level Edmonton Center
Sun 08:21:13 PM 58.7000 -110.7833 297° West 530 610 32,100  Level Edmonton Center
Sun 08:22:13 PM 58.7833 -111.0167 305° West 520 598 32,100  Level Edmonton Center
Sun 08:23:13 PM 58.8500 -111.3000 295° West 520 598 32,100  Level Edmonton Center
Sun 08:24:13 PM 58.9167 -111.5333 299° West 510 587 32,100  Level Edmonton Center
Sun 08:25:13 PM 58.9833 -111.8167 295° West 510 587 32,100  Level Edmonton Center
Sun 08:26:13 PM 59.0500 -112.0333 301° West 520 598 32,100  Level Edmonton Center
Sun 08:27:13 PM 59.1167 -112.3167 295° West 520 598 32,100  Level Edmonton Center
Sun 08:28:13 PM 59.1833 -112.5500 299° West 520 598 32,100  Level Edmonton Center
Sun 08:29:13 PM 59.2500 -112.8000 298° West 520 598 32,100  Level Edmonton Center
Sun 08:30:13 PM 59.3167 -113.0833 295° West 530 610 32,100  Level Edmonton Center
Sun 08:31:13 PM 59.3833 -113.3333 298° West 520 598 32,100  Level Edmonton Center
Sun 08:32:13 PM 59.4333 -113.5833 292° West 530 610 32,100  Level Edmonton Center
Sun 08:33:13 PM 59.5000 -113.8833 294° West 530 610 32,100  Level Edmonton Center
Sun 08:34:13 PM 59.5667 -114.1333 298° West 520 598 32,100  Level Edmonton Center
Sun 08:35:13 PM 59.6167 -114.3833 292° West 510 587 32,100  Level Edmonton Center
Sun 08:36:13 PM 59.6833 -114.6333 298° West 510 587 32,100  Level Edmonton Center
Sun 08:37:13 PM 59.7500 -114.9000 296° West 510 587 32,100  Level Edmonton Center
Sun 08:38:13 PM 59.8000 -115.1500 292° West 510 587 32,100  Level Edmonton Center
Sun 08:39:13 PM 59.8667 -115.4000 298° West 510 587 32,100  Level Edmonton Center
Sun 08:40:13 PM 59.9333 -115.7000 294° West 520 598 32,100  Level Edmonton Center
Sun 08:41:13 PM 60.0000 -115.9667 297° West 520 598 32,100  Level Edmonton Center
Sun 08:42:13 PM 60.0500 -116.2167 292° West 520 598 32,100  Level Edmonton Center
Sun 08:43:13 PM 60.1000 -116.5167 289° West 510 587 32,100  Level Edmonton Center
Sun 08:44:13 PM 60.1500 -116.7667 292° West 510 587 32,100  Level Edmonton Center
Sun 08:45:13 PM 60.2000 -117.0333 291° West 510 587 32,100  Level Edmonton Center
Sun 08:46:13 PM 60.2500 -117.3000 291° West 510 587 32,100  Level Edmonton Center
Sun 08:47:13 PM 60.3000 -117.5833 290° West 500 575 32,100  Level Edmonton Center
Sun 08:48:13 PM 60.3333 -117.8500 284° West 500 575 32,100  Level Edmonton Center
Sun 08:49:13 PM 60.3833 -118.1167 291° West 490 564 32,100  Level Edmonton Center
Sun 08:50:13 PM 60.4500 -118.3833 297° West 500 575 32,100  Level Edmonton Center
Sun 08:51:13 PM 60.4833 -118.6500 284° West 490 564 32,100  Level Edmonton Center
Sun 08:52:13 PM 60.5333 -118.9167 291° West 480 552 32,100  Level Edmonton Center
Sun 08:53:13 PM 60.5667 -119.1667 285° West 490 564 32,100  Level Edmonton Center
Sun 08:54:13 PM 60.6167 -119.4500 290° West 490 564 32,100  Level Edmonton Center
Sun 08:55:13 PM 60.6667 -119.7167 291° West 490 564 32,100  Level Edmonton Center
Sun 08:56:13 PM 60.7000 -119.9833 284° West 490 564 32,100  Level Edmonton Center
Sun 08:57:13 PM 60.7500 -120.2500 291° West 490 564 32,100  Level Edmonton Center
Sun 08:58:13 PM 60.7833 -120.5167 284° West 490 564 32,100  Level Edmonton Center
Sun 08:59:13 PM 60.8167 -120.7833 284° West 490 564 32,100  Level Edmonton Center
Sun 09:00:13 PM 60.8500 -121.0500 285° West 480 552 32,100  Level Edmonton Center
Sun 09:01:13 PM 60.9167 -121.3333 296° West 480 552 32,100  Level Edmonton Center
Sun 09:02:13 PM 60.9333 -121.5833 278° West 490 564 32,100 27 Level Edmonton Center
Sun 09:04:00 PM 61.0079 -122.0488 288° West  Level FlightAware Approximate
Sun 09:11:00 PM 61.2603 -123.9118 286° West  Level FlightAware Approximate
Sun 09:12:00 PM 61.2936 -124.1805 285° West  Level FlightAware Approximate
Sun 09:13:00 PM 61.3264 -124.4499 284° West  Level FlightAware Approximate
Sun 09:14:00 PM 61.3587 -124.7198 284° West  Level FlightAware Approximate
Sun 09:15:00 PM 61.3904 -124.9902 284° West  Level FlightAware Approximate
Sun 09:16:00 PM 61.4216 -125.2613 284° West  Level FlightAware Approximate
Sun 09:17:00 PM 61.4523 -125.5328 283° West  Level FlightAware Approximate
Sun 09:18:00 PM 61.4824 -125.8049 283° West  Level FlightAware Approximate
Sun 09:19:00 PM 61.5118 -126.0775 283° West  Level FlightAware Approximate
Sun 09:20:00 PM 61.5405 -126.3508 283° West  Level FlightAware Approximate
Sun 09:21:00 PM 61.5686 -126.6246 282° West  Level FlightAware Approximate
Sun 09:22:00 PM 61.5961 -126.8989 282° West  Level FlightAware Approximate
Sun 09:23:00 PM 61.6231 -127.1736 282° West  Level FlightAware Approximate
Sun 09:24:00 PM 61.6496 -127.4489 282° West  Level FlightAware Approximate
Sun 09:25:00 PM 61.6755 -127.7245 281° West  Level FlightAware Approximate
Sun 09:26:00 PM 61.7008 -128.0007 281° West  Level FlightAware Approximate
Sun 09:27:00 PM 61.7256 -128.2773 281° West  Level FlightAware Approximate
Sun 09:28:00 PM 61.7499 -128.5543 281° West  Level FlightAware Approximate
Sun 09:29:00 PM 61.7735 -128.8318 280° West  Level FlightAware Approximate
Sun 09:30:00 PM 61.7966 -129.1097 280° West  Level FlightAware Approximate
Sun 09:31:00 PM 61.8192 -129.3880 280° West  Level FlightAware Approximate
Sun 09:32:00 PM 61.8412 -129.6667 280° West  Level FlightAware Approximate
Sun 09:33:00 PM 61.8626 -129.9458 279° West  Level FlightAware Approximate
Sun 09:34:00 PM 61.8831 -130.2254 279° West  Level FlightAware Approximate
Sun 09:35:00 PM 61.9030 -130.5054 279° West  Level FlightAware Approximate
Sun 09:36:00 PM 61.9223 -130.7858 278° West  Level FlightAware Approximate
Sun 09:37:00 PM 61.9411 -131.0665 278° West  Level FlightAware Approximate
Sun 09:38:00 PM 61.9593 -131.3475 278° West  Level FlightAware Approximate
Sun 09:39:00 PM 61.9768 -131.6289 278° West  Level FlightAware Approximate
Sun 09:40:00 PM 61.9939 -131.9106 277° West  Level FlightAware Approximate
Sun 09:41:00 PM 62.0103 -132.1926 277° West  Level FlightAware Approximate
Sun 09:42:00 PM 62.0262 -132.4749 277° West  Level FlightAware Approximate
Sun 09:43:00 PM 62.0415 -132.7575 277° West  Level FlightAware Approximate
Sun 09:44:00 PM 62.0563 -133.0403 276° West  Level FlightAware Approximate
Sun 09:45:00 PM 62.0704 -133.3235 276° West  Level FlightAware Approximate
Sun 09:46:00 PM 62.0840 -133.6069 276° West  Level FlightAware Approximate
Sun 09:47:00 PM 62.0970 -133.8905 276° West  Level FlightAware Approximate
Sun 09:48:00 PM 62.1094 -134.1744 275° West  Level FlightAware Approximate
Sun 09:49:00 PM 62.1212 -134.4585 275° West  Level FlightAware Approximate
Sun 09:50:00 PM 62.1324 -134.7428 275° West  Level FlightAware Approximate
Sun 09:51:00 PM 62.1431 -135.0273 275° West  Level FlightAware Approximate
Sun 09:52:00 PM 62.1532 -135.3121 274° West  Level FlightAware Approximate
Sun 09:53:00 PM 62.1627 -135.5970 274° West  Level FlightAware Approximate
Sun 09:54:00 PM 62.1716 -135.8821 274° West  Level FlightAware Approximate
Sun 09:55:00 PM 62.1799 -136.1673 274° West  Level FlightAware Approximate
Sun 09:56:00 PM 62.1876 -136.4527 273° West  Level FlightAware Approximate
Sun 09:57:00 PM 62.1947 -136.7382 273° West  Level FlightAware Approximate
Sun 09:58:00 PM 62.2013 -137.0239 273° West  Level FlightAware Approximate
Sun 09:59:00 PM 62.2073 -137.3097 273° West  Level FlightAware Approximate
Sun 10:00:00 PM 62.2127 -137.5956 272° West  Level FlightAware Approximate
Sun 10:01:00 PM 62.2175 -137.8816 272° West  Level FlightAware Approximate
Sun 10:02:00 PM 62.2218 -138.1676 272° West  Level FlightAware Approximate
Sun 10:03:00 PM 62.2256 -138.4538 272° West  Level FlightAware Approximate
Sun 10:04:00 PM 62.2288 -138.7400 271° West  Level FlightAware Approximate
Sun 10:05:00 PM 62.2314 -139.0262 271° West  Level FlightAware Approximate
Sun 10:06:00 PM 62.2334 -139.3125 271° West  Level FlightAware Approximate
Sun 10:07:00 PM 62.2349 -139.5989 271° West  Level FlightAware Approximate
Sun 10:08:00 PM 62.2357 -139.8852 270° West  Level FlightAware Approximate
Sun 10:09:00 PM 62.2360 -140.1716 270° West  Level FlightAware Approximate
Sun 10:10:00 PM 62.2356 -140.4580 270° West  Level FlightAware Approximate
Sun 10:11:00 PM 62.2347 -140.7443 270° West  Level FlightAware Approximate
Sun 10:11:57 PM 62.2333 -141.4500 269° West 460 529 34,000  Level Anchorage Center
Sun 10:12:00 PM 62.2332 -141.0311 270° West  Level FlightAware Approximate
Sun 10:12:57 PM 62.2500 -141.7667 277° West 510 587 34,000  Level Anchorage Center
Sun 10:13:00 PM 62.2321 -141.3178 270° West  Level FlightAware Approximate
Sun 10:13:57 PM 62.2333 -142.0500 263° West 500 575 34,000  Level Anchorage Center
Sun 10:14:00 PM 62.2303 -141.6044 269° West  Level FlightAware Approximate
Sun 10:14:58 PM 62.2333 -142.3500 270° West 500 575 34,000  Level Anchorage Center
Sun 10:15:00 PM 62.2280 -141.8911 269° West  Level FlightAware Approximate
Sun 10:15:58 PM 62.2333 -142.6667 270° West 490 564 34,000  Level Anchorage Center
Sun 10:16:00 PM 62.2250 -142.1777 269° West  Level FlightAware Approximate
Sun 10:16:59 PM 62.2333 -142.9500 270° West 500 575 34,000  Level Anchorage Center
Sun 10:17:00 PM 62.2215 -142.4642 269° West  Level FlightAware Approximate
Sun 10:17:59 PM 62.2333 -143.2500 270° West 500 575 34,000  Level Anchorage Center
Sun 10:18:59 PM 62.2333 -143.5667 270° West 510 587 34,000  Level Anchorage Center
Sun 10:20:00 PM 62.2167 -143.8667 263° West 490 564 34,000  Level Anchorage Center
Sun 10:21:00 PM 62.2167 -144.1667 270° West 500 575 34,000  Level Anchorage Center
Sun 10:22:00 PM 62.2167 -144.4500 270° West 490 564 34,000  Level Anchorage Center
Sun 10:23:01 PM 62.2000 -144.7500 263° West 500 575 34,000 16 Level Anchorage Center
Sun 10:28:20 PM 62.1650 -146.3720 263° West 495 570 34,100 17 Climbing FlightAware ADS-B
Sun 10:29:04 PM 62.1570 -146.5870 266° West 494 568 34,100  Level FlightAware ADS-B
Sun 10:29:44 PM 62.1500 -146.7810 266° West 494 568 34,100  Level FlightAware ADS-B
Sun 10:30:26 PM 62.1420 -146.9850 265° West 493 567 34,100  Level FlightAware ADS-B
Sun 10:31:08 PM 62.1330 -147.1880 265° West 493 567 34,100  Level FlightAware ADS-B
Sun 10:31:52 PM 62.1240 -147.4020 265° West 492 566 34,100  Level FlightAware ADS-B
Sun 10:32:32 PM 62.1160 -147.5950 265° West 493 567 34,100  Level FlightAware ADS-B
Sun 10:33:16 PM 62.1060 -147.8080 264° West 492 566 34,100  Level FlightAware ADS-B
Sun 10:33:56 PM 62.0980 -147.9910 265° West 491 565 34,100  Level FlightAware ADS-B
Sun 10:34:38 PM 62.0880 -148.2030 264° West 490 564 34,100  Level FlightAware ADS-B
Sun 10:35:23 PM 62.0780 -148.4130 264° West 488 562 34,100  Level FlightAware ADS-B
Sun 10:36:02 PM 62.0680 -148.6040 264° West 487 560 34,100  Level FlightAware ADS-B
Sun 10:36:41 PM 62.0590 -148.7850 264° West 486 559 34,100  Level FlightAware ADS-B
Sun 10:37:28 PM 62.0460 -149.0120 263° West 485 558 34,100  Level FlightAware ADS-B
Sun 10:38:08 PM 62.0360 -149.2010 264° West 484 557 34,100  Level FlightAware ADS-B
Sun 10:38:52 PM 62.0240 -149.4090 263° West 484 557 34,100  Level FlightAware ADS-B
Sun 10:39:32 PM 62.0140 -149.5880 263° West 483 556 34,100  Level FlightAware ADS-B
Sun 10:40:13 PM 62.0020 -149.7860 263° West 482 555 34,100  Level FlightAware ADS-B
Sun 10:40:54 PM 61.9900 -149.9830 263° West 483 556 34,100  Level FlightAware ADS-B
Sun 10:41:26 PM 61.9800 -150.1340 262° West 483 556 34,100  Level FlightAware ADS-B
Sun 10:42:06 PM 61.9690 -150.3210 263° West 482 555 34,100  Level FlightAware ADS-B
Sun 10:42:50 PM 61.9550 -150.5270 262° West 481 554 34,100  Level FlightAware ADS-B
Sun 10:43:29 PM 61.9430 -150.7050 262° West 481 554 34,100  Level FlightAware ADS-B
Sun 10:44:12 PM 61.9290 -150.9100 262° West 481 554 34,100  Level FlightAware ADS-B
Sun 10:44:56 PM 61.9150 -151.1160 262° West 484 557 34,100  Level FlightAware ADS-B
Sun 10:45:38 PM 61.9010 -151.3130 262° West 484 557 34,100  Level FlightAware ADS-B
Sun 10:46:18 PM 61.8870 -151.5000 261° West 484 557 34,100  Level FlightAware ADS-B
Sun 10:47:04 PM 61.8720 -151.7150 262° West 484 557 34,100  Level FlightAware ADS-B
Sun 10:47:44 PM 61.8570 -151.9020 260° West 486 559 34,100  Level FlightAware ADS-B
Sun 10:48:24 PM 61.8430 -152.0850 261° West 486 559 34,100  Level FlightAware ADS-B
Sun 10:49:08 PM 61.8270 -152.2970 261° West 486 559 34,100  Level FlightAware ADS-B
Sun 10:49:48 PM 61.8120 -152.4830 260° West 485 558 34,100  Level FlightAware ADS-B
Sun 10:50:30 PM 61.7960 -152.6800 260° West 486 559 34,100  Level FlightAware ADS-B
Sun 10:51:14 PM 61.7790 -152.8850 260° West 485 558 34,100  Level FlightAware ADS-B
Sun 10:51:57 PM 61.7620 -153.0850 260° West 483 556 34,100  Level FlightAware ADS-B
Sun 10:52:37 PM 61.7460 -153.2700 260° West 483 556 34,100  Level FlightAware ADS-B
Sun 10:53:21 PM 61.7280 -153.4690 259° West 483 556 34,100  Level FlightAware ADS-B
Sun 10:53:56 PM 61.7150 -153.6210 260° West 483 556 34,100  Level FlightAware ADS-B
Sun 10:54:43 PM 61.6940 -153.8510 259° West 482 555 34,100  Level FlightAware ADS-B
Sun 10:55:27 PM 61.6750 -154.0540 259° West 482 555 34,100  Level FlightAware ADS-B
Sun 10:56:07 PM 61.6580 -154.2380 259° West 482 555 34,100  Level FlightAware ADS-B
Sun 10:56:51 PM 61.6390 -154.4350 259° West 483 556 34,100  Level FlightAware ADS-B
Sun 10:57:29 PM 61.6220 -154.6140 259° West 483 556 34,100  Level FlightAware ADS-B
Sun 10:58:15 PM 61.6010 -154.8250 258° West 484 557 34,100  Level FlightAware ADS-B
Sun 10:58:55 PM 61.5840 -155.0000 259° West 484 557 34,100  Level FlightAware ADS-B
Sun 10:59:33 PM 61.5680 -155.1550 258° West 484 557 34,100  Level FlightAware ADS-B
Sun 11:00:21 PM 61.5490 -155.3430 258° West 484 557 34,100  Level FlightAware ADS-B
Sun 11:00:57 PM 61.5350 -155.4830 258° West 484 557 34,100  Level FlightAware ADS-B
Sun 11:01:45 PM 61.5160 -155.6710 258° West 484 557 34,100  Level FlightAware ADS-B
Sun 11:02:22 PM 61.5010 -155.8150 258° West 484 557 34,100  Level FlightAware ADS-B
Sun 11:03:11 PM 61.4820 -156.0060 258° West 484 557 34,100  Level FlightAware ADS-B
Sun 11:03:47 PM 61.4670 -156.1470 258° West 484 557 34,100  Level FlightAware ADS-B
Sun 11:04:35 PM 61.4480 -156.3340 258° West 484 557 34,100  Level FlightAware ADS-B
Sun 11:05:11 PM 61.4340 -156.4740 258° West 484 557 34,100  Level FlightAware ADS-B
Sun 11:05:48 PM 61.4190 -156.6180 258° West 484 557 34,100  Level FlightAware ADS-B
Sun 11:06:36 PM 61.4000 -156.8050 258° West 484 557 34,100  Level FlightAware ADS-B
Sun 11:07:36 PM 61.3770 -157.0380 258° West 484 557 34,100  Level FlightAware ADS-B
Sun 11:08:12 PM 61.3620 -157.1780 257° West 484 557 34,100  Level FlightAware ADS-B
Sun 11:09:00 PM 61.3430 -157.3640 258° West 484 557 34,100 -94 Level FlightAware ADS-B
Sun 11:09:16 PM 61.2667 -157.8000 258° West 480 552 34,000 -79 Descending Anchorage Center
Sun 11:10:16 PM 61.2333 -158.0667 256° West 470 541 34,000  Level Anchorage Center
Sun 11:11:17 PM 61.2000 -158.3333 256° West 480 552 34,000  Level Anchorage Center
Sun 11:12:17 PM 61.1667 -158.6000 256° West 470 541 34,000  Level Anchorage Center
Sun 11:13:17 PM 61.1167 -158.8667 249° West 480 552 34,000  Level Anchorage Center
Sun 11:14:18 PM 61.0833 -159.1500 256° West 490 564 34,000  Level Anchorage Center
Sun 11:15:18 PM 61.0667 -159.4000 262° West 470 541 34,000  Level Anchorage Center
Sun 11:16:19 PM 61.0167 -159.6667 249° West 470 541 34,000  Level Anchorage Center
Sun 11:17:19 PM 60.9833 -159.9333 256° West 480 552 34,000  Level Anchorage Center
Sun 11:18:19 PM 60.9333 -160.2000 249° West 470 541 34,000  Level Anchorage Center
Sun 11:19:20 PM 60.9000 -160.4667 256° West 470 541 34,000  Level Anchorage Center
Sun 11:20:20 PM 60.8667 -160.7000 254° West 470 541 34,000  Level Anchorage Center
Sun 11:21:20 PM 60.8333 -160.9667 256° West 480 552 34,000  Level Anchorage Center
Sun 11:22:21 PM 60.7833 -161.2333 249° West 480 552 34,000  Level Anchorage Center
Sun 11:23:21 PM 60.7500 -161.4833 255° West 470 541 34,000  Level Anchorage Center
Sun 11:24:21 PM 60.7000 -161.7500 249° West 480 552 34,000  Level Anchorage Center
Sun 11:25:22 PM 60.6667 -162.0000 255° West 470 541 34,000  Level Anchorage Center
Sun 11:26:22 PM 60.6333 -162.2500 255° West 470 541 34,000  Level Anchorage Center
Sun 11:27:22 PM 60.5833 -162.5333 250° West 480 552 34,000  Level Anchorage Center
Sun 11:28:23 PM 60.5500 -162.7667 254° West 470 541 34,000  Level Anchorage Center
Sun 11:29:23 PM 60.5000 -163.0167 248° West 470 541 34,000  Level Anchorage Center
Sun 11:30:23 PM 60.4500 -163.2833 249° West 480 552 34,000  Level Anchorage Center
Sun 11:31:24 PM 60.4000 -163.5500 249° West 480 552 34,000  Level Anchorage Center
Sun 11:32:24 PM 60.3667 -163.8000 255° West 470 541 34,000  Level Anchorage Center
Sun 11:33:25 PM 60.3167 -164.0500 248° West 470 541 34,000  Level Anchorage Center
Sun 11:34:25 PM 60.2667 -164.3167 249° West 470 541 34,000  Level Anchorage Center
Sun 11:35:25 PM 60.2333 -164.5667 255° West 470 541 34,000  Level Anchorage Center
Sun 11:36:26 PM 60.1833 -164.8167 248° West 470 541 34,000  Level Anchorage Center
Sun 11:37:26 PM 60.1333 -165.0667 248° West 470 541 34,000  Level Anchorage Center
Sun 11:38:26 PM 60.0833 -165.3167 248° West 480 552 34,000  Level Anchorage Center
Sun 11:39:27 PM 60.0333 -165.5667 248° West 480 552 34,000  Level Anchorage Center
Sun 11:40:27 PM 59.9833 -165.8167 248° West 480 552 34,000  Level Anchorage Center
Sun 11:41:37 PM 59.9333 -166.1167 252° West 480 552 34,000  Level Anchorage Center
Sun 11:42:37 PM 59.8833 -166.3667 248° West 480 552 34,000  Level Anchorage Center
Sun 11:43:37 PM 59.8333 -166.6167 248° West 480 552 34,000  Level Anchorage Center
Sun 11:44:37 PM 59.7833 -166.8667 248° West 480 552 34,000  Level Anchorage Center
Sun 11:45:37 PM 59.7333 -167.1167 248° West 480 552 34,000  Level Anchorage Center
Sun 11:46:37 PM 59.6667 -167.3667 242° Southwest 480 552 34,000  Level Anchorage Center
Sun 11:47:37 PM 59.6167 -167.6000 247° West 480 552 34,000  Level Anchorage Center
Sun 11:48:37 PM 59.5667 -167.8500 249° West 490 564 34,000  Level Anchorage Center
Sun 11:49:37 PM 59.5167 -168.1000 249° West 490 564 34,000  Level Anchorage Center
Sun 11:50:37 PM 59.4500 -168.3500 242° Southwest 470 541 34,000  Level Anchorage Center
Sun 11:51:37 PM 59.4000 -168.5833 247° West 480 552 34,000  Level Anchorage Center
Sun 11:52:38 PM 59.3500 -168.8333 249° West 490 564 34,000  Level Anchorage Center
Sun 11:53:38 PM 59.3000 -169.0833 249° West 490 564 34,000  Level Anchorage Center
Sun 11:54:38 PM 59.2333 -169.3333 243° Southwest 490 564 34,000  Level Anchorage Center
Sun 11:55:38 PM 59.1833 -169.5833 249° West 490 564 34,000  Level Anchorage Center
Sun 11:56:38 PM 59.1167 -169.8167 241° Southwest 490 564 34,000 100 Level Anchorage Center
Sun 11:57:38 PM 59.0667 -170.0667 249° West 490 564 34,200 500 Climbing Anchorage Center
Sun 11:58:38 PM 59.0167 -170.3167 249° West 500 575 35,000 400 Climbing Anchorage Center
Sun 11:59:38 PM 58.9500 -170.5500 241° Southwest 490 564 35,000  Level Anchorage Center
Mon 12:00:38 AM 58.8833 -170.7833 241° Southwest 490 564 35,000  Level Anchorage Center
Mon 12:01:38 AM 58.8333 -171.0167 248° West 480 552 35,000  Level Anchorage Center
Mon 12:02:38 AM 58.7667 -171.2500 241° Southwest 480 552 35,000  Level Anchorage Center
Mon 12:03:38 AM 58.7167 -171.4833 248° West 470 541 35,000  Level Anchorage Center
Mon 12:04:39 AM 58.6667 -171.7333 249° West 470 541 35,000  Level Anchorage Center
Mon 12:05:38 AM 58.6167 -171.9667 248° West 490 564 35,000  Level Anchorage Center
Mon 12:06:38 AM 58.5667 -172.2167 249° West 490 564 35,000  Level Anchorage Center
Mon 12:07:39 AM 58.5167 -172.4500 248° West 490 564 35,000  Level Anchorage Center
Mon 12:08:39 AM 58.4667 -172.7000 249° West 480 552 35,000  Level Anchorage Center
Mon 12:09:39 AM 58.4167 -172.9333 248° West 490 564 35,000  Level Anchorage Center
Mon 12:10:39 AM 58.3667 -173.1833 249° West 490 564 35,000  Level Anchorage Center
Mon 12:11:39 AM 58.3167 -173.4167 248° West 490 564 35,000  Level Anchorage Center
Mon 12:12:39 AM 58.2667 -173.6500 248° West 490 564 35,000  Level Anchorage Center
Mon 12:13:39 AM 58.2000 -173.9000 243° Southwest 490 564 35,000  Level Anchorage Center
Mon 12:14:39 AM 58.1500 -174.1333 248° West 500 575 35,000  Level Anchorage Center
Mon 12:15:39 AM 58.1000 -174.3667 248° West 480 552 35,000  Level Anchorage Center
Mon 12:16:39 AM 58.0500 -174.6000 248° West 490 564 35,000  Level Anchorage Center
Mon 12:17:39 AM 58.0000 -174.8333 248° West 480 552 35,000  Level Anchorage Center
Mon 12:18:39 AM 57.9333 -175.0833 243° Southwest 490 564 35,000  Level Anchorage Center
Mon 12:19:40 AM 57.8833 -175.3167 248° West 480 552 35,000  Level Anchorage Center
Mon 12:20:39 AM 57.8333 -175.5500 248° West 490 564 35,000  Level Anchorage Center
Mon 12:21:39 AM 57.7833 -175.7333 243° Southwest 480 552 35,000  Level Anchorage Center
Mon 12:22:40 AM 57.7333 -175.9667 248° West 490 564 35,000  Level Anchorage Center
Mon 12:23:39 AM 57.6667 -176.2000 242° Southwest 490 564 35,000  Level Anchorage Center
Mon 12:26:02 AM 57.5333 -176.8000 245° Southwest 499 574 35,000  Level Anchorage Center
Mon 12:27:28 AM 57.5333 -176.8000 245° Southwest 499 574 35,000  Level Anchorage Center
Mon 12:32:00 AM 57.1719 -178.2002 244° Southwest 499 574 35,000  Level FlightAware Transoceanic
Mon 12:33:00 AM 57.1102 -178.4309 244° Southwest 499 574 35,000  Level FlightAware Transoceanic
Mon 12:34:00 AM 57.0480 -178.6608 243° Southwest 499 574 35,000  Level FlightAware Transoceanic
Mon 12:35:00 AM 56.9855 -178.8899 243° Southwest 499 574 35,000  Level FlightAware Transoceanic
Mon 12:36:00 AM 56.9225 -179.1183 243° Southwest 499 574 35,000  Level FlightAware Transoceanic
Mon 12:36:20 AM 56.9167 -179.1500 243° Southwest 501 577 35,000  Level Anchorage Center
Mon 12:37:00 AM 56.8591 -179.3459 243° Southwest 499 574 35,000  Level FlightAware Transoceanic
Mon 12:38:00 AM 56.7952 -179.5727 243° Southwest 499 574 35,000  Level FlightAware Transoceanic
Mon 12:39:00 AM 56.7310 -179.7988 243° Southwest 499 574 35,000  Level FlightAware Transoceanic
Mon 12:40:00 AM 56.6664 179.9760 242° Southwest 499 574 35,000  Level FlightAware Transoceanic
Mon 12:41:00 AM 56.6013 179.7515 242° Southwest 499 574 35,000  Level FlightAware Transoceanic
Mon 12:42:00 AM 56.5326 179.5110 242° Southwest 501 577 35,000  Level FlightAware Transoceanic
Mon 12:43:00 AM 56.4672 179.2904 242° Southwest 501 577 35,000  Level FlightAware Transoceanic
Mon 12:44:00 AM 56.4014 179.0707 241° Southwest 501 577 35,000  Level FlightAware Transoceanic
Mon 12:45:00 AM 56.3352 178.8517 241° Southwest 501 577 35,000  Level FlightAware Transoceanic
Mon 12:46:00 AM 56.2686 178.6335 241° Southwest 501 577 35,000  Level FlightAware Transoceanic
Mon 12:47:00 AM 56.2017 178.4160 241° Southwest 501 577 35,000  Level FlightAware Transoceanic
Mon 12:48:00 AM 56.1344 178.1993 241° Southwest 501 577 35,000  Level FlightAware Transoceanic
Mon 12:49:00 AM 56.0667 177.9833 241° Southwest 501 577 35,000  Level FlightAware Transoceanic
Mon 12:49:10 AM 56.0667 177.9833 241° Southwest 507 583 35,000  Level Anchorage Center
Mon 12:50:00 AM 55.9992 177.7703 240° Southwest 501 577 35,000  Level FlightAware Transoceanic
Mon 12:51:00 AM 55.9314 177.5579 240° Southwest 501 577 35,000  Level FlightAware Transoceanic
Mon 12:52:00 AM 55.8633 177.3464 240° Southwest 501 577 35,000  Level FlightAware Transoceanic
Mon 12:53:00 AM 55.7947 177.1355 240° Southwest 501 577 35,000  Level FlightAware Transoceanic
Mon 12:53:26 AM 55.7500 177.0167 239° Southwest 500 575 35,000  Level Anchorage Center
Mon 12:54:00 AM 55.7258 176.9254 240° Southwest 501 577 35,000  Level FlightAware Transoceanic
Mon 12:54:26 AM 55.6667 176.8000 236° Southwest 490 564 35,000  Level Anchorage Center
Mon 12:55:00 AM 55.6399 176.6660 239° Southwest 507 583 35,000  Level FlightAware Transoceanic
Mon 12:55:26 AM 55.6167 176.6000 246° West 500 575 35,000  Level Anchorage Center
Mon 12:56:00 AM 55.5675 176.4492 239° Southwest 507 583 35,000  Level FlightAware Transoceanic
Mon 12:56:26 AM 55.5333 176.3833 236° Southwest 500 575 35,000  Level Anchorage Center
Mon 12:57:00 AM 55.4946 176.2332 239° Southwest 507 583 35,000  Level FlightAware Transoceanic
Mon 12:57:26 AM 55.4833 176.2000 244° Southwest 490 564 35,000  Level Anchorage Center
Mon 12:58:00 AM 55.4213 176.0181 239° Southwest 507 583 35,000  Level FlightAware Transoceanic
Mon 12:58:26 AM 55.4000 175.9667 238° Southwest 490 564 35,000  Level Anchorage Center
Mon 12:59:27 AM 55.3333 175.7833 237° Southwest 490 564 35,000  Level Anchorage Center
Mon 01:00:27 AM 55.2667 175.5667 242° Southwest 480 552 35,000  Level Anchorage Center
Mon 01:01:27 AM 55.2000 175.4000 235° Southwest 490 564 35,000  Level Anchorage Center
Mon 01:02:27 AM 55.1167 175.1667 238° Southwest 490 564 35,000  Level Anchorage Center
Mon 01:03:27 AM 55.0500 174.9500 242° Southwest 490 564 35,000  Level Anchorage Center
Mon 01:04:27 AM 54.9833 174.7833 235° Southwest 480 552 35,000  Level Anchorage Center
Mon 01:05:27 AM 54.9000 174.5667 236° Southwest 480 552 35,000  Level Anchorage Center
Mon 01:06:27 AM 54.8500 174.3833 245° Southwest 480 552 35,000  Level Anchorage Center
Mon 01:07:27 AM 54.7667 174.1833 234° Southwest 480 552 35,000  Level Anchorage Center
Mon 01:08:28 AM 54.7000 174.0167 235° Southwest 480 552 35,000  Level Anchorage Center
Mon 01:09:27 AM 54.6167 173.8000 236° Southwest 480 552 35,000  Level Anchorage Center
Mon 01:10:27 AM 54.5667 173.6333 243° Southwest 470 541 35,000  Level Anchorage Center
Mon 01:11:27 AM 54.4833 173.4167 237° Southwest 490 564 35,000  Level Anchorage Center
Mon 01:12:27 AM 54.4000 173.2167 234° Southwest 470 541 35,000  Level Anchorage Center
Mon 01:14:28 AM 54.2667 172.8500 238° Southwest 460 529 35,000  Level Anchorage Center
Mon 01:15:28 AM 54.2000 172.6833 236° Southwest 470 541 35,000  Level Anchorage Center
Mon 01:16:28 AM 54.1167 172.4667 237° Southwest 490 564 35,000  Level Anchorage Center
Mon 01:17:28 AM 54.0500 172.3167 233° Southwest 480 552 35,000  Level Anchorage Center
Mon 01:18:28 AM 53.9667 172.1167 235° Southwest 480 552 35,000  Level Anchorage Center
Mon 01:19:28 AM 53.8833 171.9167 235° Southwest 480 552 35,000  Level Anchorage Center
Mon 01:20:28 AM 53.8167 171.7667 233° Southwest 470 541 35,000  Level Anchorage Center
Mon 01:21:28 AM 53.7333 171.5667 235° Southwest 480 552 35,000  Level Anchorage Center
Mon 01:22:28 AM 53.6667 171.4000 236° Southwest 490 564 35,000  Level Anchorage Center
Mon 01:23:28 AM 53.5667 171.2000 230° Southwest 480 552 35,000  Level Anchorage Center
Mon 01:24:28 AM 53.5000 171.0333 236° Southwest 490 564 35,000  Level Anchorage Center
Mon 01:25:28 AM 53.4167 170.8500 233° Southwest 470 541 35,000  Level Anchorage Center
Mon 01:26:28 AM 53.3333 170.6500 235° Southwest 490 564 35,000  Level Anchorage Center
Mon 01:27:28 AM 53.2667 170.4833 236° Southwest 480 552 35,000  Level Anchorage Center
Mon 01:28:29 AM 53.1833 170.3000 233° Southwest 480 552 35,000  Level Anchorage Center
Mon 01:29:28 AM 53.1000 170.1333 230° Southwest 500 575 35,000  Level Anchorage Center
Mon 01:30:29 AM 53.0167 169.9333 235° Southwest 490 564 35,000  Level Anchorage Center
Mon 01:31:28 AM 52.9500 169.7833 234° Southwest 490 564 35,000  Level Anchorage Center
Mon 01:32:29 AM 52.8833 169.5667 243° Southwest 470 541 35,000  Level Anchorage Center
Mon 01:33:29 AM 52.8500 169.4167 250° West 440 506 35,000  Level Anchorage Center
Mon 01:34:29 AM 52.7667 169.2000 238° Southwest 490 564 35,000  Level Anchorage Center
Mon 01:35:29 AM 52.6833 169.0000 236° Southwest 480 552 35,000  Level Anchorage Center
Mon 01:36:29 AM 52.6333 168.8333 244° Southwest 460 529 35,000  Level Anchorage Center
Mon 01:37:29 AM 52.5667 168.6333 241° Southwest 470 541 35,000  Level Anchorage Center
Mon 01:38:29 AM 52.5000 168.4667 237° Southwest 480 552 35,000  Level Anchorage Center
Mon 01:39:29 AM 52.4333 168.2667 241° Southwest 480 552 35,000  Level Anchorage Center
Mon 01:40:29 AM 52.3667 168.1000 237° Southwest 470 541 35,000  Level Anchorage Center
Mon 01:41:29 AM 52.3000 167.9000 241° Southwest 480 552 35,000  Level Anchorage Center
Mon 01:42:29 AM 52.2500 167.7333 244° Southwest 490 564 35,000 76 Level Anchorage Center
Mon 01:45:00 AM 52.1448 167.4433 239° Southwest  Level FlightAware Approximate
Mon 01:52:00 AM 51.6447 166.1281 239° Southwest  Level FlightAware Approximate
Mon 01:53:00 AM 51.5721 165.9426 238° Southwest  Level FlightAware Approximate
Mon 01:54:00 AM 51.4992 165.7577 238° Southwest  Level FlightAware Approximate
Mon 01:54:34 AM 51.4333 165.5500 238° Southwest 476 548 36,000  Level Anchorage Center
Mon 01:55:00 AM 51.4260 165.5733 238° Southwest  Level FlightAware Approximate
Mon 01:56:00 AM 51.3540 165.3880 238° Southwest  Level FlightAware Approximate
Mon 01:56:13 AM 51.3000 165.2333 237° Southwest 478 550 36,000  Level Anchorage Center
Mon 01:57:00 AM 51.2821 165.2030 238° Southwest  Level FlightAware Approximate
Mon 01:58:00 AM 51.2098 165.0187 238° Southwest  Level FlightAware Approximate
Mon 01:59:00 AM 51.1372 164.8349 238° Southwest  Level FlightAware Approximate
Mon 02:00:00 AM 50.9991 164.4744 237° Southwest 476 548 36,000  Level FlightAware Transoceanic
Mon 02:01:00 AM 50.9257 164.2971 237° Southwest 476 548 36,000  Level FlightAware Transoceanic
Mon 02:01:01 AM 50.9500 164.3833 237° Southwest 481 554 36,000  Level Anchorage Center
Mon 02:02:00 AM 50.8602 164.1530 237° Southwest 478 550 36,000  Level FlightAware Transoceanic
Mon 02:03:00 AM 50.7859 163.9749 236° Southwest 478 550 36,000  Level FlightAware Transoceanic
Mon 02:04:00 AM 50.7114 163.7974 236° Southwest 478 550 36,000  Level FlightAware Transoceanic
Mon 02:05:00 AM 50.6366 163.6205 236° Southwest 478 550 36,000  Level FlightAware Transoceanic
Mon 02:06:00 AM 50.5615 163.4441 236° Southwest 478 550 36,000  Level FlightAware Transoceanic
Mon 02:07:00 AM 50.4973 163.3031 236° Southwest 481 554 36,000  Level FlightAware Transoceanic
Mon 02:08:00 AM 50.4209 163.1251 236° Southwest 481 554 36,000  Level FlightAware Transoceanic
Mon 02:09:00 AM 50.3442 162.9477 236° Southwest 481 554 36,000  Level FlightAware Transoceanic
Mon 02:10:00 AM 50.2673 162.7708 236° Southwest 481 554 36,000  Level FlightAware Transoceanic
Mon 02:11:00 AM 50.1901 162.5945 236° Southwest 481 554 36,000  Level FlightAware Transoceanic
Mon 02:12:00 AM 50.1126 162.4188 235° Southwest 481 554 36,000  Level FlightAware Transoceanic
Mon 02:13:00 AM 50.0348 162.2436 235° Southwest 481 554 36,000  Level FlightAware Transoceanic
Mon 02:14:00 AM 49.9568 162.0690 235° Southwest 481 554 36,000  Level FlightAware Transoceanic
Mon 02:15:00 AM 49.8786 161.8950 235° Southwest 481 554 36,000  Level FlightAware Transoceanic
Mon 02:16:00 AM 49.8000 161.7216 235° Southwest 481 554 36,000  Level FlightAware Transoceanic
Mon 02:17:00 AM 49.7212 161.5487 235° Southwest 481 554 36,000  Level FlightAware Transoceanic
Mon 02:18:00 AM 49.6422 161.3763 235° Southwest 481 554 36,000  Level FlightAware Transoceanic
Mon 02:19:00 AM 49.5629 161.2045 234° Southwest 481 554 36,000  Level FlightAware Transoceanic
Mon 02:20:00 AM 49.4833 161.0333 234° Southwest 481 554 36,000  Level FlightAware Transoceanic
Mon 02:20:29 AM 49.4833 161.0333 234° Southwest 491 565 36,000  Level Anchorage Center
Mon 02:21:00 AM 49.4034 160.8625 234° Southwest 481 554 36,000  Level FlightAware Transoceanic
Mon 02:22:00 AM 49.3232 160.6922 234° Southwest 481 554 36,000  Level FlightAware Transoceanic
Mon 02:22:53 AM 49.2667 160.5833 234° Southwest 511 588 36,000  Level Anchorage Center
Mon 02:23:00 AM 49.2428 160.5225 234° Southwest 481 554 36,000  Level FlightAware Transoceanic
Mon 02:24:00 AM 49.1621 160.3533 234° Southwest 481 554 36,000  Level FlightAware Transoceanic
Mon 02:25:00 AM 49.0812 160.1847 234° Southwest 481 554 36,000  Level FlightAware Transoceanic
Mon 02:26:00 AM 49.0000 160.0167 233° Southwest 491 565 36,000  Level FlightAware Transoceanic
Mon 02:27:00 AM 48.9134 159.8400 233° Southwest 491 565 36,000  Level FlightAware Transoceanic
Mon 02:28:00 AM 48.8265 159.6640 233° Southwest 491 565 36,000  Level FlightAware Transoceanic
Mon 02:29:00 AM 48.7393 159.4886 233° Southwest 511 588 36,000  Level FlightAware Transoceanic
Mon 02:30:00 AM 48.6519 159.3138 233° Southwest 511 588 36,000  Level FlightAware Transoceanic
Mon 02:31:00 AM 48.5642 159.1396 233° Southwest 511 588 36,000  Level FlightAware Transoceanic
Mon 02:32:00 AM 48.4762 158.9660 233° Southwest 511 588 36,000  Level FlightAware Transoceanic
Mon 02:33:00 AM 48.3880 158.7931 232° Southwest 511 588 36,000  Level FlightAware Transoceanic
Mon 02:34:00 AM 48.2996 158.6207 232° Southwest 511 588 36,000  Level FlightAware Transoceanic
Mon 02:35:00 AM 48.2108 158.4489 232° Southwest 511 588 36,000  Level FlightAware Transoceanic
Mon 02:36:00 AM 48.1218 158.2777 232° Southwest 511 588 36,000  Level FlightAware Transoceanic
Mon 02:37:00 AM 48.0326 158.1071 232° Southwest 511 588 36,000  Level FlightAware Transoceanic
Mon 02:38:00 AM 47.9431 157.9371 232° Southwest 511 588 36,000  Level FlightAware Transoceanic
Mon 02:39:00 AM 47.8534 157.7677 232° Southwest 511 588 36,000  Level FlightAware Transoceanic
Mon 02:40:00 AM 47.7634 157.5988 232° Southwest 511 588 36,000  Level FlightAware Transoceanic
Mon 02:41:00 AM 47.6732 157.4306 231° Southwest 511 588 36,000  Level FlightAware Transoceanic
Mon 02:42:00 AM 47.5827 157.2629 231° Southwest 511 588 36,000  Level FlightAware Transoceanic
Mon 02:43:00 AM 47.4920 157.0958 231° Southwest 511 588 36,000  Level FlightAware Transoceanic
Mon 02:44:00 AM 47.4010 156.9293 231° Southwest 511 588 36,000  Level FlightAware Transoceanic
Mon 02:45:00 AM 47.3098 156.7634 231° Southwest 511 588 36,000  Level FlightAware Transoceanic
Mon 02:46:00 AM 47.2184 156.5980 231° Southwest 511 588 36,000  Level FlightAware Transoceanic
Mon 02:47:00 AM 47.1267 156.4332 231° Southwest 511 588 36,000  Level FlightAware Transoceanic
Mon 02:48:00 AM 47.0348 156.2690 231° Southwest 511 588 36,000  Level FlightAware Transoceanic
Mon 02:49:00 AM 46.9426 156.1053 230° Southwest 511 588 36,000  Level FlightAware Transoceanic
Mon 02:50:00 AM 46.8502 155.9422 230° Southwest 511 588 36,000  Level FlightAware Transoceanic
Mon 02:51:00 AM 46.7576 155.7797 230° Southwest 511 588 36,000  Level FlightAware Transoceanic
Mon 02:52:00 AM 46.6648 155.6177 230° Southwest 511 588 36,000  Level FlightAware Transoceanic
Mon 02:53:00 AM 46.5717 155.4563 230° Southwest 511 588 36,000  Level FlightAware Transoceanic
Mon 02:54:00 AM 46.4784 155.2954 230° Southwest 511 588 36,000  Level FlightAware Transoceanic
Mon 02:55:00 AM 46.3849 155.1351 230° Southwest 511 588 36,000  Level FlightAware Transoceanic
Mon 02:56:00 AM 46.2911 154.9753 230° Southwest 511 588 36,000  Level FlightAware Transoceanic
Mon 02:57:00 AM 46.1972 154.8161 229° Southwest 511 588 36,000  Level FlightAware Transoceanic
Mon 02:58:00 AM 46.1030 154.6574 229° Southwest 511 588 36,000  Level FlightAware Transoceanic
Mon 02:59:00 AM 46.0086 154.4993 229° Southwest 511 588 36,000  Level FlightAware Transoceanic
Mon 03:00:00 AM 45.9140 154.3417 229° Southwest 511 588 36,000  Level FlightAware Transoceanic
Mon 03:01:00 AM 45.8191 154.1846 229° Southwest 511 588 36,000  Level FlightAware Transoceanic
Mon 03:02:00 AM 45.7241 154.0281 229° Southwest 511 588 36,000  Level FlightAware Transoceanic
Mon 03:03:00 AM 45.6288 153.8721 229° Southwest 511 588 36,000 33 Level FlightAware Transoceanic
Mon 03:04:00 AM 45.5315 153.7371 224° Southwest  Level FlightAware Approximate
Mon 03:05:00 AM 45.4340 153.6026 224° Southwest  Level FlightAware Approximate
Mon 03:06:00 AM 45.4459 153.6032 228° Southwest  Level FlightAware Approximate
Mon 03:07:00 AM 45.3556 153.4591 228° Southwest  Level FlightAware Approximate
Mon 03:08:00 AM 45.2651 153.3154 228° Southwest  Level FlightAware Approximate
Mon 03:09:00 AM 45.1744 153.1722 228° Southwest  Level FlightAware Approximate
Mon 03:10:00 AM 45.0835 153.0294 228° Southwest  Level FlightAware Approximate
Mon 03:11:00 AM 44.9925 152.8871 228° Southwest  Level FlightAware Approximate
Mon 03:12:00 AM 44.9013 152.7452 228° Southwest  Level FlightAware Approximate
Mon 03:13:00 AM 44.8099 152.6038 228° Southwest  Level FlightAware Approximate
Mon 03:14:00 AM 44.7183 152.4628 228° Southwest  Level FlightAware Approximate
Mon 03:15:00 AM 44.6266 152.3223 227° Southwest  Level FlightAware Approximate
Mon 03:16:00 AM 44.5347 152.1822 227° Southwest  Level FlightAware Approximate
Mon 03:17:00 AM 44.4426 152.0425 227° Southwest  Level FlightAware Approximate
Mon 03:18:00 AM 44.3503 151.9033 227° Southwest  Level FlightAware Approximate
Mon 03:19:00 AM 44.2579 151.7646 227° Southwest  Level FlightAware Approximate
Mon 03:20:00 AM 44.1661 151.6273 227° Southwest  Level FlightAware Approximate
Mon 03:21:00 AM 44.0740 151.4905 227° Southwest  Level FlightAware Approximate
Mon 03:22:00 AM 43.9818 151.3541 227° Southwest  Level FlightAware Approximate
Mon 03:23:00 AM 43.8894 151.2179 227° Southwest  Level FlightAware Approximate
Mon 03:24:00 AM 43.7967 151.0822 227° Southwest  Level FlightAware Approximate
Mon 03:25:00 AM 43.7039 150.9469 227° Southwest  Level FlightAware Approximate
Mon 03:26:00 AM 43.6110 150.8120 226° Southwest  Level FlightAware Approximate
Mon 03:27:00 AM 43.5178 150.6775 226° Southwest  Level FlightAware Approximate
Mon 03:28:00 AM 43.4246 150.5434 226° Southwest  Level FlightAware Approximate
Mon 03:29:00 AM 43.3312 150.4098 226° Southwest  Level FlightAware Approximate
Mon 03:29:36 AM 42.9670 149.8530 226° Southwest 559 643 36,900  Level FlightAware ADS-B
Mon 03:30:00 AM 43.2376 150.2765 226° Southwest  Level FlightAware Approximate
Mon 03:30:19 AM 42.9040 149.7670 225° Southwest 559 643 36,900  Level FlightAware ADS-B
Mon 03:30:55 AM 42.8480 149.6910 225° Southwest 559 643 36,900  Level FlightAware ADS-B
Mon 03:31:43 AM 42.7510 149.5510 227° Southwest 553 636 36,900  Level FlightAware ADS-B
Mon 03:32:19 AM 42.6970 149.4750 226° Southwest 553 636 36,900  Level FlightAware ADS-B
Mon 03:33:01 AM 42.6010 149.3460 225° Southwest 553 636 36,900  Level FlightAware ADS-B
Mon 03:33:46 AM 42.5140 149.2260 225° Southwest 554 638 36,900  Level FlightAware ADS-B
Mon 03:34:41 AM 42.4210 149.1000 225° Southwest 554 638 36,900  Level FlightAware ADS-B
Mon 03:35:21 AM 42.3440 148.9950 225° Southwest 555 639 36,900  Level FlightAware ADS-B
Mon 03:36:06 AM 42.2620 148.8840 225° Southwest 555 639 36,900  Level FlightAware ADS-B
Mon 03:36:46 AM 42.1860 148.7820 225° Southwest 556 640 36,900  Level FlightAware ADS-B
Mon 03:37:31 AM 42.1050 148.6730 225° Southwest 556 640 36,900  Level FlightAware ADS-B
Mon 03:38:11 AM 42.0290 148.5720 225° Southwest 555 639 36,900  Level FlightAware ADS-B
Mon 03:38:51 AM 41.9560 148.4740 225° Southwest 555 639 36,900  Level FlightAware ADS-B
Mon 03:39:36 AM 41.8770 148.3690 225° Southwest 554 638 36,900  Level FlightAware ADS-B
Mon 03:40:16 AM 41.7990 148.2660 225° Southwest 553 636 36,900  Level FlightAware ADS-B
Mon 03:40:56 AM 41.7250 148.1670 225° Southwest 559 643 36,900  Level FlightAware ADS-B
Mon 03:41:41 AM 41.6420 148.0610 224° Southwest 559 643 36,900  Level FlightAware ADS-B
Mon 03:42:21 AM 41.5680 147.9660 224° Southwest 558 642 36,900  Level FlightAware ADS-B
Mon 03:43:07 AM 41.4840 147.8580 224° Southwest 557 641 36,900  Level FlightAware ADS-B
Mon 03:43:58 AM 41.3920 147.7430 223° Southwest 557 641 36,900  Level FlightAware ADS-B
Mon 03:44:41 AM 41.3060 147.6330 224° Southwest 556 640 36,900  Level FlightAware ADS-B
Mon 03:45:26 AM 41.2240 147.5290 224° Southwest 556 640 36,900  Level FlightAware ADS-B
Mon 03:46:11 AM 41.1390 147.4210 224° Southwest 555 639 36,900  Level FlightAware ADS-B
Mon 03:46:48 AM 41.0710 147.3340 224° Southwest 554 638 36,900  Level FlightAware ADS-B
Mon 03:47:48 AM 40.9600 147.1970 223° Southwest 553 636 36,900  Level FlightAware ADS-B
Mon 03:48:45 AM 40.8630 147.0770 223° Southwest 552 635 36,900  Level FlightAware ADS-B
Mon 03:49:21 AM 40.8060 147.0060 223° Southwest 552 635 36,900  Level FlightAware ADS-B
Mon 03:50:10 AM 40.7280 146.9100 223° Southwest 552 635 36,900  Level FlightAware ADS-B
Mon 03:50:46 AM 40.6710 146.8400 223° Southwest 552 635 36,900  Level FlightAware ADS-B
Mon 03:51:34 AM 40.5950 146.7460 223° Southwest 552 635 36,900  Level FlightAware ADS-B
Mon 03:52:11 AM 40.5360 146.6740 223° Southwest 552 635 36,900  Level FlightAware ADS-B
Mon 03:52:48 AM 40.4780 146.6020 223° Southwest 552 635 36,900  Level FlightAware ADS-B
Mon 03:53:54 AM 40.2860 146.3660 223° Southwest 546 628 36,900  Level FlightAware ADS-B
Mon 03:54:33 AM 40.2100 146.2720 223° Southwest 537 618 36,900  Level FlightAware ADS-B
Mon 03:55:08 AM 40.1470 146.1970 222° Southwest 532 612 36,900 71 Level FlightAware ADS-B
Mon 03:55:57 AM 40.0710 146.1050 223° Southwest 532 612 37,000  Climbing FlightAware ADS-B
Mon 03:56:41 AM 39.9850 146.0010 223° Southwest 532 612 36,900 -74 Descending FlightAware ADS-B
Mon 03:57:18 AM 39.9120 145.9160 222° Southwest 513 590 36,900  Level FlightAware ADS-B
Mon 03:58:05 AM 39.8360 145.8230 223° Southwest 509 586 36,900  Level FlightAware ADS-B
Mon 03:58:42 AM 39.7820 145.7580 223° Southwest 509 586 36,900  Level FlightAware ADS-B
Mon 03:59:30 AM 39.7110 145.6720 223° Southwest 509 586 36,900  Level FlightAware ADS-B
Mon 04:00:06 AM 39.6590 145.6090 223° Southwest 509 586 36,900  Level FlightAware ADS-B
Mon 04:00:43 AM 39.6050 145.5430 223° Southwest 509 586 36,900  Level FlightAware ADS-B
Mon 04:01:31 AM 39.5340 145.4580 223° Southwest 509 586 36,900  Level FlightAware ADS-B
Mon 04:02:17 AM 39.4670 145.3770 223° Southwest 509 586 36,900  Level FlightAware ADS-B
Mon 04:02:53 AM 39.4140 145.3130 223° Southwest 509 586 36,900  Level FlightAware ADS-B
Mon 04:03:42 AM 39.3420 145.2270 223° Southwest 509 586 36,900  Level FlightAware ADS-B
Mon 04:04:19 AM 39.2880 145.1610 223° Southwest 509 586 36,900  Level FlightAware ADS-B
Mon 04:05:07 AM 39.2180 145.0770 223° Southwest 509 586 36,900  Level FlightAware ADS-B
Mon 04:05:44 AM 39.1640 145.0120 223° Southwest 509 586 36,900  Level FlightAware ADS-B
Mon 04:06:20 AM 39.1110 144.9480 223° Southwest 509 586 36,900  Level FlightAware ADS-B
Mon 04:07:08 AM 39.0410 144.8640 223° Southwest 509 586 36,900  Level FlightAware ADS-B
Mon 04:09:00 AM 38.8343 144.6803 215° Southwest  Level FlightAware Approximate
Mon 04:10:00 AM 38.7290 144.5693 222° Southwest  Level FlightAware Approximate
Mon 04:11:00 AM 38.6282 144.4551 222° Southwest  Level FlightAware Approximate
Mon 04:12:00 AM 38.5273 144.3412 221° Southwest  Level FlightAware Approximate
Mon 04:13:00 AM 38.4262 144.2276 221° Southwest  Level FlightAware Approximate
Mon 04:14:00 AM 38.3251 144.1143 221° Southwest  Level FlightAware Approximate
Mon 04:15:00 AM 38.2238 144.0014 221° Southwest  Level FlightAware Approximate
Mon 04:16:00 AM 38.1224 143.8888 221° Southwest  Level FlightAware Approximate
Mon 04:17:00 AM 38.0210 143.7764 221° Southwest  Level FlightAware Approximate
Mon 04:18:00 AM 37.9194 143.6644 221° Southwest  Level FlightAware Approximate
Mon 04:19:00 AM 37.8177 143.5527 221° Southwest  Level FlightAware Approximate
Mon 04:20:00 AM 37.7059 143.4583 212° Southwest  Level FlightAware Approximate
Mon 04:21:00 AM 37.5920 143.3678 212° Southwest  Level FlightAware Approximate
Mon 04:21:24 AM 37.5730 143.3430 212° Southwest 450 518 36,900  Level FlightAware ADS-B
Mon 04:22:04 AM 37.5000 143.2910 209° Southwest 449 517 36,900 -71 Level FlightAware ADS-B
Mon 04:22:48 AM 37.4210 143.2330 210° Southwest 449 517 36,800 -635 Descending FlightAware ADS-B
Mon 04:23:29 AM 37.3490 143.1810 210° Southwest 453 521 36,000 -628 Descending FlightAware ADS-B
Mon 04:24:14 AM 37.2660 143.1200 210° Southwest 457 526 35,900 -71 Descending FlightAware ADS-B
Mon 04:24:54 AM 37.1900 143.0660 210° Southwest 456 525 35,900  Level FlightAware ADS-B
Mon 04:25:35 AM 37.1170 143.0130 210° Southwest 457 526 35,900  Level FlightAware ADS-B
Mon 04:26:14 AM 37.0430 142.9610 209° Southwest 458 527 35,900  Level FlightAware ADS-B
Mon 04:26:52 AM 36.9790 142.9150 210° Southwest 458 527 35,900  Level FlightAware ADS-B
Mon 04:27:42 AM 36.8840 142.8480 209° Southwest 457 526 35,900  Level FlightAware ADS-B
Mon 04:28:23 AM 36.8120 142.7960 210° Southwest 457 526 35,900  Level FlightAware ADS-B
Mon 04:29:06 AM 36.7280 142.7370 209° Southwest 459 528 35,900  Level FlightAware ADS-B
Mon 04:29:46 AM 36.6530 142.6850 209° Southwest 460 529 35,900  Level FlightAware ADS-B
Mon 04:30:32 AM 36.5710 142.6270 210° Southwest 459 528 35,900  Level FlightAware ADS-B
Mon 04:31:06 AM 36.5100 142.5840 210° Southwest 460 529 35,900 -225 Level FlightAware ADS-B
Mon 04:31:52 AM 36.4300 142.5280 209° Southwest 450 518 35,600 -725 Descending FlightAware ADS-B
Mon 04:32:37 AM 36.3430 142.4670 209° Southwest 449 517 34,800 -1,271 Descending FlightAware ADS-B
Mon 04:33:17 AM 36.2710 142.4170 209° Southwest 457 526 33,800 -1,425 Descending FlightAware ADS-B
Mon 04:33:57 AM 36.1930 142.3630 209° Southwest 460 529 32,900 -1,259 Descending FlightAware ADS-B
Mon 04:34:38 AM 36.1300 142.3200 209° Southwest 464 534 32,100 -1,333 Descending FlightAware ADS-B
Mon 04:35:18 AM 36.0440 142.2600 209° Southwest 464 534 31,100 -2,225 Descending FlightAware ADS-B
Mon 04:36:07 AM 35.9510 142.1950 210° Southwest 457 526 28,800 -2,753 Descending FlightAware ADS-B
Mon 04:36:43 AM 35.8920 142.1550 209° Southwest 449 517 27,200 -2,836 Descending FlightAware ADS-B
Mon 04:37:02 AM 35.8610 142.1240 219° Southwest 447 514 26,200 -2,625 Descending FlightAware ADS-B
Mon 04:37:15 AM 35.8450 142.0930 238° Southwest 443 510 25,800 -1,811 Descending FlightAware ADS-B
Mon 04:37:55 AM 35.8410 141.9990 267° West 442 509 24,600 -2,415 Descending FlightAware ADS-B
Mon 04:38:37 AM 35.8370 141.8840 268° West 436 502 22,500 -2,707 Descending FlightAware ADS-B
Mon 04:39:17 AM 35.8370 141.7910 270° West 429 494 20,900 -2,682 Descending FlightAware ADS-B
Mon 04:40:02 AM 35.8390 141.6800 271° West 419 482 18,700 -2,753 Descending FlightAware ADS-B
Mon 04:40:42 AM 35.8410 141.5880 272° West 410 472 17,000 -2,612 Descending FlightAware ADS-B
Mon 04:41:27 AM 35.8430 141.4810 271° West 396 456 15,000 -2,541 Descending FlightAware ADS-B
Mon 04:42:07 AM 35.8440 141.3920 271° West 384 442 13,400 -2,188 Descending FlightAware ADS-B
Mon 04:42:52 AM 35.8450 141.2960 271° West 366 421 11,900 -1,624 Descending FlightAware ADS-B
Mon 04:43:32 AM 35.8460 141.2150 271° West 344 396 11,100 -776 Descending FlightAware ADS-B
Mon 04:44:17 AM 35.8470 141.1340 271° West 306 352 10,800 -424 Descending FlightAware ADS-B
Mon 04:44:57 AM 35.8400 141.0710 262° West 269 310 10,500 -1,217 Descending FlightAware ADS-B
Mon 04:45:26 AM 35.8170 141.0320 234° Southwest 284 327 9,400 -1,527 Descending FlightAware ADS-B
Mon 04:45:52 AM 35.7970 140.9970 235° Southwest 293 337 9,100 -471 Descending FlightAware ADS-B
Mon 04:46:17 AM 35.7840 140.9620 245° Southwest 294 338 9,000 -115 Descending FlightAware ADS-B
Mon 04:46:44 AM 35.7740 140.9190 254° West 294 338 9,000  Level FlightAware ADS-B
Mon 04:47:17 AM 35.7620 140.8640 255° West 270 311 9,000  Level FlightAware ADS-B
Mon 04:47:47 AM 35.7530 140.8210 256° West 272 313 9,000  Level FlightAware ADS-B
Mon 04:48:27 AM 35.7600 140.7630 278° West 278 320 9,000  Level FlightAware ADS-B
Mon 04:48:37 AM 35.7690 140.7500 310° West 276 318 9,000  Level FlightAware ADS-B
Mon 04:49:12 AM 35.7990 140.7120 314° West 275 316 9,000 -416 Level FlightAware ADS-B
Mon 04:49:46 AM 35.8250 140.6780 313° West 8,900 -636 Descending FlightAware ADS-B
Mon 04:50:18 AM 35.8550 140.6380 313° West 271 312 8,300 -885 Descending FlightAware ADS-B
Mon 04:50:47 AM 35.8810 140.6050 314° West 269 310 8,000 -444 Descending FlightAware ADS-B
Mon 04:51:12 AM 35.9040 140.5750 313° West 268 308 7,900 -655 Descending FlightAware ADS-B
Mon 04:51:42 AM 35.9260 140.5410 309° West 262 302 7,400 -982 Descending FlightAware ADS-B
Mon 04:52:07 AM 35.9380 140.5080 294° West 250 288 7,000 -1,200 Descending FlightAware ADS-B
Mon 04:52:42 AM 35.9540 140.4620 293° West 239 275 6,200 -1,000 Descending FlightAware ADS-B
Mon 04:53:07 AM 35.9640 140.4300 291° West 239 275 6,000 -960 Descending FlightAware ADS-B
Mon 04:53:32 AM 35.9750 140.3990 294° West 235 270 5,400 -1,200 Descending FlightAware ADS-B
Mon 04:53:57 AM 35.9830 140.3670 287° West 229 264 5,000 -800 Descending FlightAware ADS-B
Mon 04:54:32 AM 35.9800 140.3270 265° West 204 235 4,600 -1,100 Descending FlightAware ADS-B
Mon 04:54:57 AM 35.9740 140.2980 256° West 204 235 3,900 -1,418 Descending FlightAware ADS-B
Mon 04:55:27 AM 35.9580 140.2710 234° Southwest 198 228 3,300 -1,200 Descending FlightAware ADS-B
Mon 04:55:42 AM 35.9440 140.2650 199° South 192 221 3,000 -857 Descending FlightAware ADS-B
Mon 04:56:02 AM 35.9270 140.2600 193° South 193 222 2,800 -300 Descending FlightAware ADS-B
Mon 04:56:22 AM 35.9110 140.2680 158° South 193 222 2,800  Level FlightAware ADS-B
Mon 04:56:32 AM 35.9050 140.2730 146° Southeast 179 206 2,800 -400 Level FlightAware ADS-B
Mon 04:57:07 AM 35.8800 140.2920 148° Southeast 170 196 2,500 -700 Descending FlightAware ADS-B
Mon 04:57:32 AM 35.8630 140.3040 150° Southeast 169 194 2,100 -873 Descending FlightAware ADS-B
Mon 04:58:02 AM 35.8430 140.3180 150° Southeast 168 193 1,700 -764 Descending FlightAware ADS-B
Mon 04:58:27 AM 35.8270 140.3300 149° Southeast 143 165 1,400 -764 Descending FlightAware ADS-B
Mon 04:58:57 AM 35.8120 140.3410 149° Southeast 140 161 1,000 -800 Descending FlightAware ADS-B
Mon 05:01:00 AM 35.7647 140.3864 253° West  Level Estimated
Mon 05:02:00 AM 35.7647 140.3864 253° West  Level Estimated

Login

Don't have an account? Register now (free) for customized features, flight alerts, and more!